<?xml version='1.0' encoding='UTF-8'?><gpx version="1.1" creator="JPX - https://github.com/jenetics/jpx" xmlns="http://www.topografix.com/GPX/1/1"><trk><trkseg><trkpt lat="45.405798526523334" lon="11.859796866785606"><ele>13.0</ele><time>2026-04-03T17:14:59Z</time></trkpt><trkpt lat="45.4058116637815" lon="11.859678693464852"><ele>13.0</ele><time>2026-04-03T17:15:21Z</time></trkpt><trkpt lat="45.40581334310867" lon="11.859572275730788"><ele>13.0</ele><time>2026-04-03T17:15:22Z</time></trkpt><trkpt lat="45.40581272261262" lon="11.859423968508832"><ele>13.0</ele><time>2026-04-03T17:15:24Z</time></trkpt><trkpt lat="45.4058276795406" lon="11.85926421560236"><ele>13.0</ele><time>2026-04-03T17:15:26Z</time></trkpt><trkpt lat="45.40580778266776" lon="11.859088902149393"><ele>13.25</ele><time>2026-04-03T17:15:28Z</time></trkpt><trkpt lat="45.4058527709885" lon="11.858926040337993"><ele>13.5</ele><time>2026-04-03T17:15:30Z</time></trkpt><trkpt lat="45.405860997208" lon="11.858762957050933"><ele>13.75</ele><time>2026-04-03T17:15:32Z</time></trkpt><trkpt lat="45.40587879982661" lon="11.858629439589842"><ele>14.0</ele><time>2026-04-03T17:15:34Z</time></trkpt><trkpt lat="45.40588598742516" lon="11.858460248257638"><ele>14.0</ele><time>2026-04-03T17:15:36Z</time></trkpt><trkpt lat="45.405894912971576" lon="11.858334561954242"><ele>13.999999999999998</ele><time>2026-04-03T17:15:38Z</time></trkpt><trkpt lat="45.40589059889959" lon="11.858217745746721"><ele>13.999999999999998</ele><time>2026-04-03T17:15:41Z</time></trkpt><trkpt lat="45.405881160336705" lon="11.8581063955257"><ele>14.0</ele><time>2026-04-03T17:15:45Z</time></trkpt><trkpt lat="45.40575875724764" lon="11.858073919317425"><ele>14.0</ele><time>2026-04-03T17:15:46Z</time></trkpt><trkpt lat="45.405664018057124" lon="11.858089024307375"><ele>14.0</ele><time>2026-04-03T17:15:48Z</time></trkpt><trkpt lat="45.40554163465458" lon="11.858066881332668"><ele>13.999999999999998</ele><time>2026-04-03T17:15:50Z</time></trkpt><trkpt lat="45.405478131363694" lon="11.858036410561663"><ele>13.999999999999998</ele><time>2026-04-03T17:15:51Z</time></trkpt><trkpt lat="45.40539903837045" lon="11.858047872754623"><ele>14.0</ele><time>2026-04-03T17:15:52Z</time></trkpt><trkpt lat="45.40528466569827" lon="11.858031630441939"><ele>14.0</ele><time>2026-04-03T17:15:54Z</time></trkpt><trkpt lat="45.405156156030586" lon="11.858031693397214"><ele>13.666666666666668</ele><time>2026-04-03T17:15:56Z</time></trkpt><trkpt lat="45.40504848792799" lon="11.858015742298585"><ele>13.333333333333334</ele><time>2026-04-03T17:15:58Z</time></trkpt><trkpt lat="45.40495450941498" lon="11.858004348677504"><ele>13.0</ele><time>2026-04-03T17:16:00Z</time></trkpt><trkpt lat="45.4048845755682" lon="11.858021610111507"><ele>12.666666666666668</ele><time>2026-04-03T17:16:03Z</time></trkpt><trkpt lat="45.40481415239774" lon="11.858038904796894"><ele>12.333333333333334</ele><time>2026-04-03T17:16:07Z</time></trkpt><trkpt lat="45.404721000457045" lon="11.858064309819918"><ele>12.0</ele><time>2026-04-03T17:16:08Z</time></trkpt><trkpt lat="45.404631020294254" lon="11.857991778618779"><ele>11.833333333333334</ele><time>2026-04-03T17:16:10Z</time></trkpt><trkpt lat="45.40448303282589" lon="11.857957273218709"><ele>11.666666666666666</ele><time>2026-04-03T17:16:12Z</time></trkpt><trkpt lat="45.4044202803133" lon="11.857942641568544"><ele>11.5</ele><time>2026-04-03T17:16:13Z</time></trkpt><trkpt lat="45.40434314383408" lon="11.857924656089928"><ele>11.333333333333332</ele><time>2026-04-03T17:16:14Z</time></trkpt><trkpt lat="45.404281428195056" lon="11.857899717794593"><ele>11.166666666666666</ele><time>2026-04-03T17:16:15Z</time></trkpt><trkpt lat="45.404192539468944" lon="11.857879010227444"><ele>11.0</ele><time>2026-04-03T17:16:16Z</time></trkpt><trkpt lat="45.40411867699038" lon="11.857860618564947"><ele>11.0</ele><time>2026-04-03T17:16:17Z</time></trkpt><trkpt lat="45.40404302831866" lon="11.857849203719844"><ele>11.0</ele><time>2026-04-03T17:16:18Z</time></trkpt><trkpt lat="45.40397236703985" lon="11.857833167928616"><ele>11.0</ele><time>2026-04-03T17:16:19Z</time></trkpt><trkpt lat="45.40389862294953" lon="11.857818921541272"><ele>11.0</ele><time>2026-04-03T17:16:20Z</time></trkpt><trkpt lat="45.403821578620416" lon="11.857796962772158"><ele>11.0</ele><time>2026-04-03T17:16:21Z</time></trkpt><trkpt lat="45.40374079696377" lon="11.85777996000808"><ele>11.0</ele><time>2026-04-03T17:16:22Z</time></trkpt><trkpt lat="45.40365783632619" lon="11.85776717258379"><ele>11.166666666666666</ele><time>2026-04-03T17:16:23Z</time></trkpt><trkpt lat="45.403569550453355" lon="11.857772074263544"><ele>11.333333333333332</ele><time>2026-04-03T17:16:24Z</time></trkpt><trkpt lat="45.40348568440251" lon="11.857753830326882"><ele>11.5</ele><time>2026-04-03T17:16:25Z</time></trkpt><trkpt lat="45.403391926173484" lon="11.857744457917516"><ele>11.666666666666666</ele><time>2026-04-03T17:16:26Z</time></trkpt><trkpt lat="45.40331145546283" lon="11.857711380793807"><ele>11.833333333333334</ele><time>2026-04-03T17:16:27Z</time></trkpt><trkpt lat="45.40321882428191" lon="11.857697470048807"><ele>12.0</ele><time>2026-04-03T17:16:28Z</time></trkpt><trkpt lat="45.4031294861164" lon="11.85767872914804"><ele>12.0</ele><time>2026-04-03T17:16:29Z</time></trkpt><trkpt lat="45.403060622863606" lon="11.857663260564161"><ele>12.0</ele><time>2026-04-03T17:16:30Z</time></trkpt><trkpt lat="45.40294453914113" lon="11.857687735141232"><ele>12.0</ele><time>2026-04-03T17:16:31Z</time></trkpt><trkpt lat="45.40285074650548" lon="11.857689809477002"><ele>12.0</ele><time>2026-04-03T17:16:32Z</time></trkpt><trkpt lat="45.402786687204625" lon="11.857667580404419"><ele>12.0</ele><time>2026-04-03T17:16:33Z</time></trkpt><trkpt lat="45.402702964593225" lon="11.857660869417536"><ele>12.0</ele><time>2026-04-03T17:16:34Z</time></trkpt><trkpt lat="45.402623844556494" lon="11.857652374658251"><ele>11.833333333333334</ele><time>2026-04-03T17:16:35Z</time></trkpt><trkpt lat="45.40250861852566" lon="11.857650119721917"><ele>11.666666666666666</ele><time>2026-04-03T17:16:37Z</time></trkpt><trkpt lat="45.40244008074534" lon="11.857603276336356"><ele>11.5</ele><time>2026-04-03T17:16:38Z</time></trkpt><trkpt lat="45.402376668954574" lon="11.857577238613906"><ele>11.333333333333332</ele><time>2026-04-03T17:16:40Z</time></trkpt><trkpt lat="45.40231253653502" lon="11.857613740147208"><ele>11.166666666666666</ele><time>2026-04-03T17:18:07Z</time></trkpt><trkpt lat="45.40222354505235" lon="11.857596097686734"><ele>11.0</ele><time>2026-04-03T17:18:09Z</time></trkpt><trkpt lat="45.402124966627305" lon="11.857586448071904"><ele>11.4</ele><time>2026-04-03T17:18:11Z</time></trkpt><trkpt lat="45.40199587540145" lon="11.857545762264778"><ele>11.8</ele><time>2026-04-03T17:18:13Z</time></trkpt><trkpt lat="45.40189899104057" lon="11.857540092762068"><ele>12.200000000000001</ele><time>2026-04-03T17:18:15Z</time></trkpt><trkpt lat="45.40180832851524" lon="11.857538881538169"><ele>12.600000000000001</ele><time>2026-04-03T17:18:17Z</time></trkpt><trkpt lat="45.40174068075845" lon="11.857518237665909"><ele>13.0</ele><time>2026-04-03T17:18:19Z</time></trkpt><trkpt lat="45.40173689429384" lon="11.857367570715788"><ele>12.999999999999998</ele><time>2026-04-03T17:18:22Z</time></trkpt><trkpt lat="45.40176548909849" lon="11.857211279609144"><ele>13.0</ele><time>2026-04-03T17:18:24Z</time></trkpt><trkpt lat="45.40178170215263" lon="11.857122663624269"><ele>13.0</ele><time>2026-04-03T17:18:25Z</time></trkpt><trkpt lat="45.40178386922825" lon="11.857021429114342"><ele>13.0</ele><time>2026-04-03T17:18:26Z</time></trkpt><trkpt lat="45.40183147494375" lon="11.856925091479532"><ele>12.999999999999998</ele><time>2026-04-03T17:18:27Z</time></trkpt><trkpt lat="45.40185491599246" lon="11.856823189941746"><ele>13.0</ele><time>2026-04-03T17:18:28Z</time></trkpt><trkpt lat="45.40187826308643" lon="11.856708789593949"><ele>13.0</ele><time>2026-04-03T17:18:29Z</time></trkpt><trkpt lat="45.40190174442026" lon="11.856597192660775"><ele>13.0</ele><time>2026-04-03T17:18:30Z</time></trkpt><trkpt lat="45.4019257615692" lon="11.85645776508183"><ele>13.0</ele><time>2026-04-03T17:18:31Z</time></trkpt><trkpt lat="45.401950558178015" lon="11.856328349890845"><ele>13.0</ele><time>2026-04-03T17:18:32Z</time></trkpt><trkpt lat="45.40197614082177" lon="11.856205488349636"><ele>13.0</ele><time>2026-04-03T17:18:33Z</time></trkpt><trkpt lat="45.40199627075056" lon="11.856073123095529"><ele>13.0</ele><time>2026-04-03T17:18:34Z</time></trkpt><trkpt lat="45.40199923492975" lon="11.855938924373953"><ele>13.0</ele><time>2026-04-03T17:18:35Z</time></trkpt><trkpt lat="45.40201629147239" lon="11.85580228760524"><ele>13.0</ele><time>2026-04-03T17:18:36Z</time></trkpt><trkpt lat="45.402038255060916" lon="11.85566645676114"><ele>13.0</ele><time>2026-04-03T17:18:37Z</time></trkpt><trkpt lat="45.40207371716591" lon="11.855525525656699"><ele>13.0</ele><time>2026-04-03T17:18:38Z</time></trkpt><trkpt lat="45.40209662367243" lon="11.855394726990802"><ele>12.999999999999998</ele><time>2026-04-03T17:18:39Z</time></trkpt><trkpt lat="45.40212006621778" lon="11.855261906691894"><ele>13.0</ele><time>2026-04-03T17:18:40Z</time></trkpt><trkpt lat="45.402141494611335" lon="11.855136251481776"><ele>13.0</ele><time>2026-04-03T17:18:41Z</time></trkpt><trkpt lat="45.40215894192591" lon="11.855032900972022"><ele>13.0</ele><time>2026-04-03T17:18:42Z</time></trkpt><trkpt lat="45.40217599514647" lon="11.854937505464372"><ele>12.999999999999998</ele><time>2026-04-03T17:18:43Z</time></trkpt><trkpt lat="45.402204663129844" lon="11.854792917390423"><ele>13.0</ele><time>2026-04-03T17:18:45Z</time></trkpt><trkpt lat="45.40212311249248" lon="11.85469450974564"><ele>12.999999999999998</ele><time>2026-04-03T17:18:49Z</time></trkpt><trkpt lat="45.40200365571004" lon="11.854649931673281"><ele>13.0</ele><time>2026-04-03T17:18:51Z</time></trkpt><trkpt lat="45.40194180454898" lon="11.854631261822325"><ele>13.0</ele><time>2026-04-03T17:18:52Z</time></trkpt><trkpt lat="45.401871421414" lon="11.854628333906184"><ele>13.0</ele><time>2026-04-03T17:18:53Z</time></trkpt><trkpt lat="45.40180163061374" lon="11.854595041468533"><ele>12.999999999999998</ele><time>2026-04-03T17:18:54Z</time></trkpt><trkpt lat="45.4017206032929" lon="11.854604209156063"><ele>13.0</ele><time>2026-04-03T17:18:55Z</time></trkpt><trkpt lat="45.40159868579903" lon="11.85456983766995"><ele>12.999999999999998</ele><time>2026-04-03T17:18:56Z</time></trkpt><trkpt lat="45.40152470239913" lon="11.854549350387567"><ele>13.0</ele><time>2026-04-03T17:18:57Z</time></trkpt><trkpt lat="45.401450652942906" lon="11.854527503194845"><ele>13.0</ele><time>2026-04-03T17:18:58Z</time></trkpt><trkpt lat="45.40135504879242" lon="11.854497430789248"><ele>13.0</ele><time>2026-04-03T17:18:59Z</time></trkpt><trkpt lat="45.40125539663099" lon="11.854467353499889"><ele>12.999999999999998</ele><time>2026-04-03T17:19:00Z</time></trkpt><trkpt lat="45.40116419211375" lon="11.854471007856114"><ele>13.0</ele><time>2026-04-03T17:19:01Z</time></trkpt><trkpt lat="45.40107953214658" lon="11.854461848345457"><ele>12.833333333333332</ele><time>2026-04-03T17:19:02Z</time></trkpt><trkpt lat="45.401006285463424" lon="11.854449761044389"><ele>12.666666666666666</ele><time>2026-04-03T17:19:03Z</time></trkpt><trkpt lat="45.40091625716954" lon="11.85443604869772"><ele>12.5</ele><time>2026-04-03T17:19:04Z</time></trkpt><trkpt lat="45.400846489816225" lon="11.85442949210228"><ele>12.333333333333332</ele><time>2026-04-03T17:19:05Z</time></trkpt><trkpt lat="45.400782208526984" lon="11.854423161004412"><ele>12.166666666666666</ele><time>2026-04-03T17:19:06Z</time></trkpt><trkpt lat="45.400676601420145" lon="11.85440469653586"><ele>12.0</ele><time>2026-04-03T17:19:08Z</time></trkpt><trkpt lat="45.400610261022926" lon="11.854390424803885"><ele>12.0</ele><time>2026-04-03T17:19:10Z</time></trkpt><trkpt lat="45.4005376238867" lon="11.854350609524777"><ele>12.0</ele><time>2026-04-03T17:19:14Z</time></trkpt><trkpt lat="45.400537431461956" lon="11.854210038529779"><ele>12.0</ele><time>2026-04-03T17:19:16Z</time></trkpt><trkpt lat="45.40055144665945" lon="11.854118758758968"><ele>12.0</ele><time>2026-04-03T17:19:17Z</time></trkpt><trkpt lat="45.40057235657881" lon="11.854023169432564"><ele>12.0</ele><time>2026-04-03T17:19:18Z</time></trkpt><trkpt lat="45.40059305359416" lon="11.8539027335626"><ele>12.0</ele><time>2026-04-03T17:19:19Z</time></trkpt><trkpt lat="45.400601109756444" lon="11.853787589462469"><ele>12.0</ele><time>2026-04-03T17:19:20Z</time></trkpt><trkpt lat="45.40060341324313" lon="11.853667956815348"><ele>12.0</ele><time>2026-04-03T17:19:21Z</time></trkpt><trkpt lat="45.40060895688316" lon="11.853534242887081"><ele>12.0</ele><time>2026-04-03T17:19:22Z</time></trkpt><trkpt lat="45.40061130881696" lon="11.853395259752249"><ele>12.0</ele><time>2026-04-03T17:19:23Z</time></trkpt><trkpt lat="45.40060993192318" lon="11.85324673122527"><ele>12.0</ele><time>2026-04-03T17:19:24Z</time></trkpt><trkpt lat="45.40060921980949" lon="11.853088222356519"><ele>12.2</ele><time>2026-04-03T17:19:25Z</time></trkpt><trkpt lat="45.40060460806092" lon="11.852934243296344"><ele>12.399999999999999</ele><time>2026-04-03T17:19:26Z</time></trkpt><trkpt lat="45.400593649159894" lon="11.85277624713103"><ele>12.600000000000001</ele><time>2026-04-03T17:19:27Z</time></trkpt><trkpt lat="45.400582566010165" lon="11.852624423252369"><ele>12.8</ele><time>2026-04-03T17:19:28Z</time></trkpt><trkpt lat="45.400577460578916" lon="11.852470686532708"><ele>13.0</ele><time>2026-04-03T17:19:29Z</time></trkpt><trkpt lat="45.40057992898091" lon="11.85232431479601"><ele>13.2</ele><time>2026-04-03T17:19:30Z</time></trkpt><trkpt lat="45.40057094903017" lon="11.852182061242885"><ele>13.4</ele><time>2026-04-03T17:19:31Z</time></trkpt><trkpt lat="45.40056017203809" lon="11.852035685554792"><ele>13.599999999999998</ele><time>2026-04-03T17:19:32Z</time></trkpt><trkpt lat="45.40055059124393" lon="11.851884543134874"><ele>13.799999999999999</ele><time>2026-04-03T17:19:33Z</time></trkpt><trkpt lat="45.400538060199615" lon="11.851732661666242"><ele>14.0</ele><time>2026-04-03T17:19:34Z</time></trkpt><trkpt lat="45.40052422415132" lon="11.851583512701849"><ele>14.0</ele><time>2026-04-03T17:19:35Z</time></trkpt><trkpt lat="45.40051013192904" lon="11.851436724744683"><ele>13.999999999999998</ele><time>2026-04-03T17:19:36Z</time></trkpt><trkpt lat="45.400489583610536" lon="11.851293238174751"><ele>13.999999999999998</ele><time>2026-04-03T17:19:37Z</time></trkpt><trkpt lat="45.40046992550277" lon="11.851149616686742"><ele>14.0</ele><time>2026-04-03T17:19:38Z</time></trkpt><trkpt lat="45.40045294422997" lon="11.851014651843967"><ele>14.0</ele><time>2026-04-03T17:19:39Z</time></trkpt><trkpt lat="45.40043437368331" lon="11.850889399010862"><ele>13.500000000000002</ele><time>2026-04-03T17:19:40Z</time></trkpt><trkpt lat="45.40042334640425" lon="11.850762539594117"><ele>13.0</ele><time>2026-04-03T17:19:41Z</time></trkpt><trkpt lat="45.400407556058695" lon="11.850650139963815"><ele>12.5</ele><time>2026-04-03T17:19:42Z</time></trkpt><trkpt lat="45.40039470712656" lon="11.850548909854014"><ele>12.0</ele><time>2026-04-03T17:19:43Z</time></trkpt><trkpt lat="45.400370612890015" lon="11.850405767972372"><ele>11.5</ele><time>2026-04-03T17:19:45Z</time></trkpt><trkpt lat="45.400356809319064" lon="11.850315226582541"><ele>11.0</ele><time>2026-04-03T17:19:47Z</time></trkpt><trkpt lat="45.40034152015592" lon="11.850219017423335"><ele>10.8</ele><time>2026-04-03T17:19:50Z</time></trkpt><trkpt lat="45.400328807882325" lon="11.850094200804424"><ele>10.600000000000001</ele><time>2026-04-03T17:19:53Z</time></trkpt><trkpt lat="45.40028384202808" lon="11.849967326399362"><ele>10.4</ele><time>2026-04-03T17:19:57Z</time></trkpt><trkpt lat="45.40023953354769" lon="11.849853812718388"><ele>10.2</ele><time>2026-04-03T17:19:59Z</time></trkpt><trkpt lat="45.40020871767051" lon="11.849763390575617"><ele>10.0</ele><time>2026-04-03T17:20:00Z</time></trkpt><trkpt lat="45.400254736761546" lon="11.84962841844119"><ele>10.0</ele><time>2026-04-03T17:20:01Z</time></trkpt><trkpt lat="45.40013845424301" lon="11.849550270255486"><ele>10.0</ele><time>2026-04-03T17:20:02Z</time></trkpt><trkpt lat="45.400108158663556" lon="11.849411126423659"><ele>10.0</ele><time>2026-04-03T17:20:03Z</time></trkpt><trkpt lat="45.400066144980684" lon="11.849252754528123"><ele>10.0</ele><time>2026-04-03T17:20:04Z</time></trkpt><trkpt lat="45.4000338709035" lon="11.84910616282826"><ele>10.5</ele><time>2026-04-03T17:20:05Z</time></trkpt><trkpt lat="45.40000532641412" lon="11.848947257946774"><ele>11.0</ele><time>2026-04-03T17:20:06Z</time></trkpt><trkpt lat="45.39996644247507" lon="11.848775706586595"><ele>11.5</ele><time>2026-04-03T17:20:07Z</time></trkpt><trkpt lat="45.399928979721096" lon="11.848596245149984"><ele>12.0</ele><time>2026-04-03T17:20:08Z</time></trkpt><trkpt lat="45.399885435664174" lon="11.84840105283094"><ele>12.0</ele><time>2026-04-03T17:20:09Z</time></trkpt><trkpt lat="45.399843646162246" lon="11.848204734039038"><ele>12.0</ele><time>2026-04-03T17:20:10Z</time></trkpt><trkpt lat="45.39979145466527" lon="11.848004133130953"><ele>12.0</ele><time>2026-04-03T17:20:11Z</time></trkpt><trkpt lat="45.399748579250954" lon="11.8478016899685"><ele>12.0</ele><time>2026-04-03T17:20:12Z</time></trkpt><trkpt lat="45.39969501564442" lon="11.847591963052592"><ele>11.333333333333334</ele><time>2026-04-03T17:20:13Z</time></trkpt><trkpt lat="45.39963793012636" lon="11.847373318826886"><ele>10.666666666666668</ele><time>2026-04-03T17:20:14Z</time></trkpt><trkpt lat="45.39957812830648" lon="11.84715297807926"><ele>10.0</ele><time>2026-04-03T17:20:15Z</time></trkpt><trkpt lat="45.39952263486604" lon="11.846933286948834"><ele>10.0</ele><time>2026-04-03T17:20:16Z</time></trkpt><trkpt lat="45.3994664529478" lon="11.846716837079969"><ele>10.0</ele><time>2026-04-03T17:20:17Z</time></trkpt><trkpt lat="45.39942235970262" lon="11.846506989310068"><ele>10.0</ele><time>2026-04-03T17:20:18Z</time></trkpt><trkpt lat="45.399369718252885" lon="11.846295616899074"><ele>10.0</ele><time>2026-04-03T17:20:19Z</time></trkpt><trkpt lat="45.39931685276957" lon="11.846084913145262"><ele>10.0</ele><time>2026-04-03T17:20:20Z</time></trkpt><trkpt lat="45.39927236800014" lon="11.845899165501288"><ele>10.0</ele><time>2026-04-03T17:20:21Z</time></trkpt><trkpt lat="45.39922998188727" lon="11.845696931132196"><ele>10.0</ele><time>2026-04-03T17:20:22Z</time></trkpt><trkpt lat="45.39918669939786" lon="11.845479374385786"><ele>10.5</ele><time>2026-04-03T17:20:23Z</time></trkpt><trkpt lat="45.39914107903394" lon="11.845274518714564"><ele>11.0</ele><time>2026-04-03T17:20:24Z</time></trkpt><trkpt lat="45.39908731201861" lon="11.845078383079741"><ele>11.5</ele><time>2026-04-03T17:20:25Z</time></trkpt><trkpt lat="45.39904440907711" lon="11.844884478843507"><ele>12.0</ele><time>2026-04-03T17:20:26Z</time></trkpt><trkpt lat="45.39900715180275" lon="11.844701053174328"><ele>12.25</ele><time>2026-04-03T17:20:27Z</time></trkpt><trkpt lat="45.39897143551321" lon="11.844517989911777"><ele>12.5</ele><time>2026-04-03T17:20:28Z</time></trkpt><trkpt lat="45.39891983631759" lon="11.844333244584357"><ele>12.75</ele><time>2026-04-03T17:20:29Z</time></trkpt><trkpt lat="45.39888879735328" lon="11.844151569696939"><ele>13.0</ele><time>2026-04-03T17:20:30Z</time></trkpt><trkpt lat="45.398861490045356" lon="11.843965500405492"><ele>13.25</ele><time>2026-04-03T17:20:31Z</time></trkpt><trkpt lat="45.39883692067166" lon="11.843790211652209"><ele>13.5</ele><time>2026-04-03T17:20:32Z</time></trkpt><trkpt lat="45.39880715040778" lon="11.84360408503481"><ele>13.75</ele><time>2026-04-03T17:20:33Z</time></trkpt><trkpt lat="45.398772772056816" lon="11.843429643747612"><ele>14.0</ele><time>2026-04-03T17:20:34Z</time></trkpt><trkpt lat="45.39873380076439" lon="11.84324858563382"><ele>14.0</ele><time>2026-04-03T17:20:35Z</time></trkpt><trkpt lat="45.39868923944035" lon="11.843052341763173"><ele>14.0</ele><time>2026-04-03T17:20:36Z</time></trkpt><trkpt lat="45.398652400955264" lon="11.842856240830985"><ele>14.0</ele><time>2026-04-03T17:20:37Z</time></trkpt><trkpt lat="45.39862111081881" lon="11.84265151803408"><ele>14.0</ele><time>2026-04-03T17:20:38Z</time></trkpt><trkpt lat="45.39858383325514" lon="11.842437517902924"><ele>14.0</ele><time>2026-04-03T17:20:39Z</time></trkpt><trkpt lat="45.398561845798994" lon="11.842253288684082"><ele>14.0</ele><time>2026-04-03T17:20:40Z</time></trkpt><trkpt lat="45.39853342298446" lon="11.842068910903416"><ele>14.0</ele><time>2026-04-03T17:20:41Z</time></trkpt><trkpt lat="45.39850280900839" lon="11.841865279991065"><ele>14.0</ele><time>2026-04-03T17:20:42Z</time></trkpt><trkpt lat="45.3984883444978" lon="11.841674724040015"><ele>14.0</ele><time>2026-04-03T17:20:43Z</time></trkpt><trkpt lat="45.39845962323214" lon="11.84147671241467"><ele>14.0</ele><time>2026-04-03T17:20:44Z</time></trkpt><trkpt lat="45.39842160384014" lon="11.841307014077373"><ele>14.0</ele><time>2026-04-03T17:20:45Z</time></trkpt><trkpt lat="45.398390864030496" lon="11.84113678637476"><ele>14.0</ele><time>2026-04-03T17:20:46Z</time></trkpt><trkpt lat="45.398357587589295" lon="11.840978691476492"><ele>14.0</ele><time>2026-04-03T17:20:47Z</time></trkpt><trkpt lat="45.39831016554292" lon="11.840831766964243"><ele>14.0</ele><time>2026-04-03T17:20:48Z</time></trkpt><trkpt lat="45.39824519845912" lon="11.840702507215221"><ele>14.0</ele><time>2026-04-03T17:20:49Z</time></trkpt><trkpt lat="45.398155552616345" lon="11.840591142882987"><ele>14.0</ele><time>2026-04-03T17:20:50Z</time></trkpt><trkpt lat="45.39805782058895" lon="11.840510825522793"><ele>13.799999999999999</ele><time>2026-04-03T17:20:51Z</time></trkpt><trkpt lat="45.3979562421379" lon="11.84045676084052"><ele>13.599999999999998</ele><time>2026-04-03T17:20:52Z</time></trkpt><trkpt lat="45.39784912469926" lon="11.840425667791948"><ele>13.4</ele><time>2026-04-03T17:20:53Z</time></trkpt><trkpt lat="45.397739473963014" lon="11.84041755145787"><ele>13.2</ele><time>2026-04-03T17:20:54Z</time></trkpt><trkpt lat="45.39762333965001" lon="11.840431316367"><ele>13.0</ele><time>2026-04-03T17:20:55Z</time></trkpt><trkpt lat="45.397509974561814" lon="11.840470297342415"><ele>13.0</ele><time>2026-04-03T17:20:56Z</time></trkpt><trkpt lat="45.39739832539119" lon="11.840509180364624"><ele>13.0</ele><time>2026-04-03T17:20:57Z</time></trkpt><trkpt lat="45.397294409155215" lon="11.840553874046991"><ele>13.0</ele><time>2026-04-03T17:20:58Z</time></trkpt><trkpt lat="45.39718021050734" lon="11.840622301195674"><ele>13.0</ele><time>2026-04-03T17:20:59Z</time></trkpt><trkpt lat="45.39705795243848" lon="11.84068763395661"><ele>12.75</ele><time>2026-04-03T17:21:00Z</time></trkpt><trkpt lat="45.39695828606924" lon="11.840753758121519"><ele>12.5</ele><time>2026-04-03T17:21:01Z</time></trkpt><trkpt lat="45.39684200499304" lon="11.840815000212665"><ele>12.25</ele><time>2026-04-03T17:21:02Z</time></trkpt><trkpt lat="45.396716760800466" lon="11.84086724285714"><ele>12.0</ele><time>2026-04-03T17:21:03Z</time></trkpt><trkpt lat="45.39660412695186" lon="11.8409497399878"><ele>12.25</ele><time>2026-04-03T17:21:04Z</time></trkpt><trkpt lat="45.39648203331282" lon="11.841016684393637"><ele>12.5</ele><time>2026-04-03T17:21:05Z</time></trkpt><trkpt lat="45.39636024793304" lon="11.840992098321303"><ele>12.75</ele><time>2026-04-03T17:21:06Z</time></trkpt><trkpt lat="45.39622579812697" lon="11.841027549791104"><ele>13.0</ele><time>2026-04-03T17:21:07Z</time></trkpt><trkpt lat="45.39609182236719" lon="11.841059324042462"><ele>13.0</ele><time>2026-04-03T17:21:08Z</time></trkpt><trkpt lat="45.39595260320046" lon="11.841087244916746"><ele>13.0</ele><time>2026-04-03T17:21:09Z</time></trkpt><trkpt lat="45.395807328596405" lon="11.841124246274346"><ele>13.0</ele><time>2026-04-03T17:21:10Z</time></trkpt><trkpt lat="45.39566750816037" lon="11.841153372242836"><ele>13.0</ele><time>2026-04-03T17:21:11Z</time></trkpt><trkpt lat="45.39552835443379" lon="11.841182702492196"><ele>12.75</ele><time>2026-04-03T17:21:12Z</time></trkpt><trkpt lat="45.39538891100664" lon="11.841216681410511"><ele>12.5</ele><time>2026-04-03T17:21:13Z</time></trkpt><trkpt lat="45.39525073679633" lon="11.841241897674823"><ele>12.25</ele><time>2026-04-03T17:21:14Z</time></trkpt><trkpt lat="45.395109283662485" lon="11.841271994258747"><ele>12.0</ele><time>2026-04-03T17:21:15Z</time></trkpt><trkpt lat="45.39497137228043" lon="11.841295697925405"><ele>12.0</ele><time>2026-04-03T17:21:16Z</time></trkpt><trkpt lat="45.394828041439396" lon="11.841308229675493"><ele>12.0</ele><time>2026-04-03T17:21:17Z</time></trkpt><trkpt lat="45.39467287237603" lon="11.841308607219394"><ele>12.0</ele><time>2026-04-03T17:21:18Z</time></trkpt><trkpt lat="45.39453517386116" lon="11.841282474427631"><ele>12.0</ele><time>2026-04-03T17:21:19Z</time></trkpt><trkpt lat="45.3944032924253" lon="11.84123482008489"><ele>12.25</ele><time>2026-04-03T17:21:20Z</time></trkpt><trkpt lat="45.39427381958746" lon="11.841183884712915"><ele>12.5</ele><time>2026-04-03T17:21:21Z</time></trkpt><trkpt lat="45.39414212650356" lon="11.84112382171453"><ele>12.75</ele><time>2026-04-03T17:21:22Z</time></trkpt><trkpt lat="45.39401996964726" lon="11.841054763197855"><ele>13.0</ele><time>2026-04-03T17:21:23Z</time></trkpt><trkpt lat="45.393890018990305" lon="11.840974352245016"><ele>12.75</ele><time>2026-04-03T17:21:24Z</time></trkpt><trkpt lat="45.393760863534524" lon="11.840890879858916"><ele>12.5</ele><time>2026-04-03T17:21:25Z</time></trkpt><trkpt lat="45.393624639963484" lon="11.84080794735793"><ele>12.25</ele><time>2026-04-03T17:21:26Z</time></trkpt><trkpt lat="45.39348713529538" lon="11.84072007116213"><ele>12.0</ele><time>2026-04-03T17:21:27Z</time></trkpt><trkpt lat="45.39334778380368" lon="11.84062308154699"><ele>12.0</ele><time>2026-04-03T17:21:28Z</time></trkpt><trkpt lat="45.3932076179466" lon="11.84052260017776"><ele>12.0</ele><time>2026-04-03T17:21:29Z</time></trkpt><trkpt lat="45.393069248325524" lon="11.840419036337682"><ele>12.0</ele><time>2026-04-03T17:21:30Z</time></trkpt><trkpt lat="45.392915719413594" lon="11.840310884359228"><ele>12.0</ele><time>2026-04-03T17:21:31Z</time></trkpt><trkpt lat="45.3927722965619" lon="11.840199663265286"><ele>12.0</ele><time>2026-04-03T17:21:32Z</time></trkpt><trkpt lat="45.39262470595465" lon="11.840090504564234"><ele>12.0</ele><time>2026-04-03T17:21:33Z</time></trkpt><trkpt lat="45.39246585338652" lon="11.839980596507646"><ele>12.0</ele><time>2026-04-03T17:21:34Z</time></trkpt><trkpt lat="45.39232373935436" lon="11.839876123727603"><ele>12.0</ele><time>2026-04-03T17:21:35Z</time></trkpt><trkpt lat="45.39217953493752" lon="11.839762096717616"><ele>12.0</ele><time>2026-04-03T17:21:36Z</time></trkpt><trkpt lat="45.392012299195876" lon="11.839642668489338"><ele>12.0</ele><time>2026-04-03T17:21:37Z</time></trkpt><trkpt lat="45.39185288797315" lon="11.839531754302097"><ele>12.0</ele><time>2026-04-03T17:21:38Z</time></trkpt><trkpt lat="45.39169401388361" lon="11.839415820197054"><ele>12.0</ele><time>2026-04-03T17:21:39Z</time></trkpt><trkpt lat="45.3915288048775" lon="11.839297497276473"><ele>12.0</ele><time>2026-04-03T17:21:40Z</time></trkpt><trkpt lat="45.39136062383702" lon="11.839169529302833"><ele>12.0</ele><time>2026-04-03T17:21:41Z</time></trkpt><trkpt lat="45.391183924163975" lon="11.839066889187942"><ele>12.0</ele><time>2026-04-03T17:21:42Z</time></trkpt><trkpt lat="45.39102206907096" lon="11.838942370981066"><ele>12.333333333333332</ele><time>2026-04-03T17:21:43Z</time></trkpt><trkpt lat="45.390858036064955" lon="11.838830524980136"><ele>12.666666666666666</ele><time>2026-04-03T17:21:44Z</time></trkpt><trkpt lat="45.390683780142695" lon="11.83869967079915"><ele>13.0</ele><time>2026-04-03T17:21:45Z</time></trkpt><trkpt lat="45.39051243053815" lon="11.838561833059826"><ele>12.333333333333332</ele><time>2026-04-03T17:21:46Z</time></trkpt><trkpt lat="45.39033909002268" lon="11.838422761680235"><ele>11.666666666666666</ele><time>2026-04-03T17:21:47Z</time></trkpt><trkpt lat="45.39016357376802" lon="11.838287687195322"><ele>11.0</ele><time>2026-04-03T17:21:48Z</time></trkpt><trkpt lat="45.38998929707024" lon="11.838151520296645"><ele>11.0</ele><time>2026-04-03T17:21:49Z</time></trkpt><trkpt lat="45.38984381376339" lon="11.838025100489634"><ele>11.0</ele><time>2026-04-03T17:21:50Z</time></trkpt><trkpt lat="45.389660775236926" lon="11.837887386592426"><ele>11.0</ele><time>2026-04-03T17:21:51Z</time></trkpt><trkpt lat="45.38948808413109" lon="11.83775882085502"><ele>11.666666666666666</ele><time>2026-04-03T17:21:52Z</time></trkpt><trkpt lat="45.38932455166739" lon="11.837630842808176"><ele>12.333333333333332</ele><time>2026-04-03T17:21:53Z</time></trkpt><trkpt lat="45.38915712668215" lon="11.837497598429154"><ele>13.0</ele><time>2026-04-03T17:21:54Z</time></trkpt><trkpt lat="45.38900433996407" lon="11.837376446192609"><ele>13.333333333333332</ele><time>2026-04-03T17:21:55Z</time></trkpt><trkpt lat="45.388832534348936" lon="11.83724415690613"><ele>13.666666666666668</ele><time>2026-04-03T17:21:56Z</time></trkpt><trkpt lat="45.38862532453037" lon="11.837067717994804"><ele>14.0</ele><time>2026-04-03T17:21:57Z</time></trkpt><trkpt lat="45.38845237042089" lon="11.836930922557109"><ele>14.0</ele><time>2026-04-03T17:21:58Z</time></trkpt><trkpt lat="45.38827983771664" lon="11.836807332331192"><ele>14.0</ele><time>2026-04-03T17:21:59Z</time></trkpt><trkpt lat="45.388129424311316" lon="11.83668051061162"><ele>14.0</ele><time>2026-04-03T17:22:00Z</time></trkpt><trkpt lat="45.3879704328818" lon="11.836552936691573"><ele>13.333333333333334</ele><time>2026-04-03T17:22:01Z</time></trkpt><trkpt lat="45.38781780087395" lon="11.836424386449236"><ele>12.666666666666668</ele><time>2026-04-03T17:22:02Z</time></trkpt><trkpt lat="45.38766189673999" lon="11.836298562549922"><ele>12.0</ele><time>2026-04-03T17:22:03Z</time></trkpt><trkpt lat="45.38751358785168" lon="11.836184062835185"><ele>12.0</ele><time>2026-04-03T17:22:04Z</time></trkpt><trkpt lat="45.387369110425865" lon="11.836060650374176"><ele>12.0</ele><time>2026-04-03T17:22:05Z</time></trkpt><trkpt lat="45.387218822187684" lon="11.835937937794533"><ele>12.0</ele><time>2026-04-03T17:22:06Z</time></trkpt><trkpt lat="45.387062952716356" lon="11.8358157880869"><ele>12.0</ele><time>2026-04-03T17:22:07Z</time></trkpt><trkpt lat="45.386902252381766" lon="11.835685183576619"><ele>12.0</ele><time>2026-04-03T17:22:08Z</time></trkpt><trkpt lat="45.38675917748129" lon="11.835565461198252"><ele>12.0</ele><time>2026-04-03T17:22:09Z</time></trkpt><trkpt lat="45.3866106101813" lon="11.835435669541871"><ele>12.0</ele><time>2026-04-03T17:22:10Z</time></trkpt><trkpt lat="45.3864661517469" lon="11.835312357368137"><ele>12.0</ele><time>2026-04-03T17:22:11Z</time></trkpt><trkpt lat="45.386311824036305" lon="11.835177370319427"><ele>12.0</ele><time>2026-04-03T17:22:12Z</time></trkpt><trkpt lat="45.38615939782158" lon="11.835036885258297"><ele>11.666666666666666</ele><time>2026-04-03T17:22:13Z</time></trkpt><trkpt lat="45.38601438857956" lon="11.834884066137647"><ele>11.333333333333332</ele><time>2026-04-03T17:22:14Z</time></trkpt><trkpt lat="45.3858680882605" lon="11.834733999050805"><ele>11.0</ele><time>2026-04-03T17:22:15Z</time></trkpt><trkpt lat="45.38573952531207" lon="11.834568563378397"><ele>11.0</ele><time>2026-04-03T17:22:16Z</time></trkpt><trkpt lat="45.38559619193429" lon="11.834396988857028"><ele>11.0</ele><time>2026-04-03T17:22:17Z</time></trkpt><trkpt lat="45.38546797187649" lon="11.834221148193294"><ele>11.0</ele><time>2026-04-03T17:22:18Z</time></trkpt><trkpt lat="45.385349277592226" lon="11.834042886227149"><ele>11.0</ele><time>2026-04-03T17:22:19Z</time></trkpt><trkpt lat="45.38523118833379" lon="11.833850118946451"><ele>11.0</ele><time>2026-04-03T17:22:20Z</time></trkpt><trkpt lat="45.385114384849544" lon="11.83365021660821"><ele>11.0</ele><time>2026-04-03T17:22:21Z</time></trkpt><trkpt lat="45.38500225947612" lon="11.83345260178122"><ele>11.666666666666666</ele><time>2026-04-03T17:22:22Z</time></trkpt><trkpt lat="45.38489126409156" lon="11.83324696567069"><ele>12.333333333333332</ele><time>2026-04-03T17:22:23Z</time></trkpt><trkpt lat="45.38479370845393" lon="11.833029041171434"><ele>13.0</ele><time>2026-04-03T17:22:24Z</time></trkpt><trkpt lat="45.38470480579517" lon="11.832826844343606"><ele>12.666666666666666</ele><time>2026-04-03T17:22:25Z</time></trkpt><trkpt lat="45.38462657691305" lon="11.83261677379975"><ele>12.333333333333332</ele><time>2026-04-03T17:22:26Z</time></trkpt><trkpt lat="45.384556271066586" lon="11.832407259451115"><ele>12.0</ele><time>2026-04-03T17:22:27Z</time></trkpt><trkpt lat="45.38448736477085" lon="11.832203177892756"><ele>12.0</ele><time>2026-04-03T17:22:28Z</time></trkpt><trkpt lat="45.38441585438428" lon="11.831997046476438"><ele>12.0</ele><time>2026-04-03T17:22:29Z</time></trkpt><trkpt lat="45.38433997974782" lon="11.831782073657468"><ele>12.0</ele><time>2026-04-03T17:22:30Z</time></trkpt><trkpt lat="45.384273196882894" lon="11.831563425290984"><ele>11.333333333333334</ele><time>2026-04-03T17:22:31Z</time></trkpt><trkpt lat="45.3842132623508" lon="11.831333720988038"><ele>10.666666666666668</ele><time>2026-04-03T17:22:32Z</time></trkpt><trkpt lat="45.38415543295775" lon="11.831111403845146"><ele>10.0</ele><time>2026-04-03T17:22:33Z</time></trkpt><trkpt lat="45.38410115838141" lon="11.830888879341034"><ele>9.666666666666668</ele><time>2026-04-03T17:22:34Z</time></trkpt><trkpt lat="45.38403873875109" lon="11.830668521960614"><ele>9.333333333333334</ele><time>2026-04-03T17:22:35Z</time></trkpt><trkpt lat="45.38397699817611" lon="11.830446119439406"><ele>9.0</ele><time>2026-04-03T17:22:36Z</time></trkpt><trkpt lat="45.38391729000445" lon="11.83022142880669"><ele>9.333333333333334</ele><time>2026-04-03T17:22:37Z</time></trkpt><trkpt lat="45.38385587012132" lon="11.829996020207306"><ele>9.666666666666668</ele><time>2026-04-03T17:22:38Z</time></trkpt><trkpt lat="45.38379741383281" lon="11.82976731459614"><ele>10.0</ele><time>2026-04-03T17:22:39Z</time></trkpt><trkpt lat="45.38373301079219" lon="11.82953978221067"><ele>10.0</ele><time>2026-04-03T17:22:40Z</time></trkpt><trkpt lat="45.38367266781535" lon="11.829318989340234"><ele>10.0</ele><time>2026-04-03T17:22:41Z</time></trkpt><trkpt lat="45.38361323689413" lon="11.829101449194296"><ele>10.0</ele><time>2026-04-03T17:22:42Z</time></trkpt><trkpt lat="45.38355529536784" lon="11.828883123398153"><ele>9.666666666666668</ele><time>2026-04-03T17:22:43Z</time></trkpt><trkpt lat="45.38350098228139" lon="11.828673940735653"><ele>9.333333333333334</ele><time>2026-04-03T17:22:44Z</time></trkpt><trkpt lat="45.38344896948913" lon="11.828463443429833"><ele>9.0</ele><time>2026-04-03T17:22:45Z</time></trkpt><trkpt lat="45.383400480067166" lon="11.828259249961473"><ele>9.0</ele><time>2026-04-03T17:22:46Z</time></trkpt><trkpt lat="45.38335265641175" lon="11.828058324155196"><ele>9.0</ele><time>2026-04-03T17:22:47Z</time></trkpt><trkpt lat="45.38328624909343" lon="11.827877164867758"><ele>9.0</ele><time>2026-04-03T17:22:48Z</time></trkpt><trkpt lat="45.383269052435324" lon="11.827659810500306"><ele>9.0</ele><time>2026-04-03T17:22:49Z</time></trkpt><trkpt lat="45.38322756173393" lon="11.827479532248267"><ele>9.5</ele><time>2026-04-03T17:22:50Z</time></trkpt><trkpt lat="45.38318153826926" lon="11.827295022590654"><ele>10.0</ele><time>2026-04-03T17:22:51Z</time></trkpt><trkpt lat="45.38314121014132" lon="11.827114541621071"><ele>10.5</ele><time>2026-04-03T17:22:52Z</time></trkpt><trkpt lat="45.38309613606487" lon="11.826934593928716"><ele>11.0</ele><time>2026-04-03T17:22:53Z</time></trkpt><trkpt lat="45.383052234269876" lon="11.826751710210027"><ele>11.0</ele><time>2026-04-03T17:22:54Z</time></trkpt><trkpt lat="45.38299993643921" lon="11.826574631376403"><ele>11.0</ele><time>2026-04-03T17:22:55Z</time></trkpt><trkpt lat="45.382945168484525" lon="11.826403791343843"><ele>11.0</ele><time>2026-04-03T17:22:56Z</time></trkpt><trkpt lat="45.382890710558236" lon="11.826230336760199"><ele>11.0</ele><time>2026-04-03T17:22:57Z</time></trkpt><trkpt lat="45.382839400856284" lon="11.826050112152693"><ele>11.0</ele><time>2026-04-03T17:22:58Z</time></trkpt><trkpt lat="45.382791322481644" lon="11.825886576950424"><ele>11.0</ele><time>2026-04-03T17:22:59Z</time></trkpt><trkpt lat="45.382748776002444" lon="11.825730754559798"><ele>11.0</ele><time>2026-04-03T17:23:00Z</time></trkpt><trkpt lat="45.38270453937663" lon="11.82557915199411"><ele>11.0</ele><time>2026-04-03T17:23:01Z</time></trkpt><trkpt lat="45.38266538955605" lon="11.825436720286298"><ele>11.0</ele><time>2026-04-03T17:23:02Z</time></trkpt><trkpt lat="45.382642444085405" lon="11.825299742738151"><ele>11.0</ele><time>2026-04-03T17:23:03Z</time></trkpt><trkpt lat="45.38262822209866" lon="11.825161083532649"><ele>11.0</ele><time>2026-04-03T17:23:04Z</time></trkpt><trkpt lat="45.3826296954566" lon="11.825023689099924"><ele>11.0</ele><time>2026-04-03T17:23:05Z</time></trkpt><trkpt lat="45.38264634196894" lon="11.824888478130248"><ele>11.0</ele><time>2026-04-03T17:23:06Z</time></trkpt><trkpt lat="45.38268810185139" lon="11.824798628423116"><ele>11.0</ele><time>2026-04-03T17:23:07Z</time></trkpt><trkpt lat="45.38272715053127" lon="11.82469741364142"><ele>11.0</ele><time>2026-04-03T17:23:08Z</time></trkpt><trkpt lat="45.382733453990525" lon="11.82459981108822"><ele>11.0</ele><time>2026-04-03T17:23:09Z</time></trkpt><trkpt lat="45.38278380137706" lon="11.824507296144244"><ele>11.0</ele><time>2026-04-03T17:23:10Z</time></trkpt><trkpt lat="45.38280965191936" lon="11.824400059879219"><ele>11.0</ele><time>2026-04-03T17:23:11Z</time></trkpt><trkpt lat="45.382830983121075" lon="11.824296057410494"><ele>11.0</ele><time>2026-04-03T17:23:12Z</time></trkpt><trkpt lat="45.38285259296981" lon="11.824172422500794"><ele>11.0</ele><time>2026-04-03T17:23:13Z</time></trkpt><trkpt lat="45.382879398179966" lon="11.824041809386506"><ele>11.0</ele><time>2026-04-03T17:23:14Z</time></trkpt><trkpt lat="45.3829064205803" lon="11.823909968915132"><ele>11.0</ele><time>2026-04-03T17:23:15Z</time></trkpt><trkpt lat="45.38293342994103" lon="11.82376832525681"><ele>11.0</ele><time>2026-04-03T17:23:16Z</time></trkpt><trkpt lat="45.382960986603756" lon="11.823622027301873"><ele>11.0</ele><time>2026-04-03T17:23:17Z</time></trkpt><trkpt lat="45.382988933558785" lon="11.823468153861162"><ele>11.25</ele><time>2026-04-03T17:23:18Z</time></trkpt><trkpt lat="45.38301670171605" lon="11.823310177748853"><ele>11.5</ele><time>2026-04-03T17:23:19Z</time></trkpt><trkpt lat="45.38304567266286" lon="11.823138228815765"><ele>11.75</ele><time>2026-04-03T17:23:20Z</time></trkpt><trkpt lat="45.38307295691834" lon="11.822960654662518"><ele>12.0</ele><time>2026-04-03T17:23:21Z</time></trkpt><trkpt lat="45.38309629857267" lon="11.822783304412019"><ele>11.75</ele><time>2026-04-03T17:23:22Z</time></trkpt><trkpt lat="45.383122026794226" lon="11.822593651383269"><ele>11.5</ele><time>2026-04-03T17:23:23Z</time></trkpt><trkpt lat="45.38314697136361" lon="11.822398723198825"><ele>11.25</ele><time>2026-04-03T17:23:24Z</time></trkpt><trkpt lat="45.38317753606233" lon="11.82219406758944"><ele>11.0</ele><time>2026-04-03T17:23:25Z</time></trkpt><trkpt lat="45.383204494932635" lon="11.821986894851163"><ele>10.666666666666666</ele><time>2026-04-03T17:23:26Z</time></trkpt><trkpt lat="45.3832326100186" lon="11.821771087636202"><ele>10.333333333333334</ele><time>2026-04-03T17:23:27Z</time></trkpt><trkpt lat="45.38326197453697" lon="11.821549580733276"><ele>10.0</ele><time>2026-04-03T17:23:28Z</time></trkpt><trkpt lat="45.38329080686265" lon="11.821320438857287"><ele>10.0</ele><time>2026-04-03T17:23:29Z</time></trkpt><trkpt lat="45.38332414800289" lon="11.821089539446803"><ele>10.0</ele><time>2026-04-03T17:23:30Z</time></trkpt><trkpt lat="45.383354734815704" lon="11.820857558788765"><ele>10.0</ele><time>2026-04-03T17:23:31Z</time></trkpt><trkpt lat="45.3833809251092" lon="11.820630528823507"><ele>10.0</ele><time>2026-04-03T17:23:32Z</time></trkpt><trkpt lat="45.383409270553415" lon="11.820408350582712"><ele>10.0</ele><time>2026-04-03T17:23:33Z</time></trkpt><trkpt lat="45.38343497737292" lon="11.820181574677429"><ele>10.0</ele><time>2026-04-03T17:23:34Z</time></trkpt><trkpt lat="45.383453319199205" lon="11.81995414704934"><ele>10.0</ele><time>2026-04-03T17:23:35Z</time></trkpt><trkpt lat="45.383471733869754" lon="11.819727764405851"><ele>10.0</ele><time>2026-04-03T17:23:36Z</time></trkpt><trkpt lat="45.38349111859991" lon="11.81949823336089"><ele>10.0</ele><time>2026-04-03T17:23:37Z</time></trkpt><trkpt lat="45.38350276123425" lon="11.819263965647256"><ele>9.666666666666668</ele><time>2026-04-03T17:23:38Z</time></trkpt><trkpt lat="45.38351375546673" lon="11.819026795084403"><ele>9.333333333333334</ele><time>2026-04-03T17:23:39Z</time></trkpt><trkpt lat="45.383515406062095" lon="11.818786569787337"><ele>9.0</ele><time>2026-04-03T17:23:40Z</time></trkpt><trkpt lat="45.38351728754428" lon="11.818548519282759"><ele>9.666666666666666</ele><time>2026-04-03T17:23:41Z</time></trkpt><trkpt lat="45.38352001276533" lon="11.818306877031784"><ele>10.333333333333332</ele><time>2026-04-03T17:23:42Z</time></trkpt><trkpt lat="45.38352051134475" lon="11.818064958676452"><ele>11.0</ele><time>2026-04-03T17:23:43Z</time></trkpt><trkpt lat="45.383514986981886" lon="11.817815087403813"><ele>11.333333333333332</ele><time>2026-04-03T17:23:44Z</time></trkpt><trkpt lat="45.38350690460476" lon="11.817568773357385"><ele>11.666666666666666</ele><time>2026-04-03T17:23:45Z</time></trkpt><trkpt lat="45.383492998609576" lon="11.817324075440085"><ele>12.0</ele><time>2026-04-03T17:23:46Z</time></trkpt><trkpt lat="45.383486699358286" lon="11.817075729414427"><ele>12.0</ele><time>2026-04-03T17:23:47Z</time></trkpt><trkpt lat="45.383471017526844" lon="11.816823005277177"><ele>12.0</ele><time>2026-04-03T17:23:48Z</time></trkpt><trkpt lat="45.3834526464351" lon="11.816575672232208"><ele>12.0</ele><time>2026-04-03T17:23:49Z</time></trkpt><trkpt lat="45.383435740962724" lon="11.816330580095244"><ele>12.666666666666668</ele><time>2026-04-03T17:23:50Z</time></trkpt><trkpt lat="45.3834164062222" lon="11.816081454345376"><ele>13.333333333333334</ele><time>2026-04-03T17:23:51Z</time></trkpt><trkpt lat="45.38339846765852" lon="11.815832496104074"><ele>14.0</ele><time>2026-04-03T17:23:52Z</time></trkpt><trkpt lat="45.383377722386726" lon="11.815580848716689"><ele>14.333333333333334</ele><time>2026-04-03T17:23:53Z</time></trkpt><trkpt lat="45.38335692536149" lon="11.81533430250896"><ele>14.666666666666668</ele><time>2026-04-03T17:23:54Z</time></trkpt><trkpt lat="45.38333595128882" lon="11.815082053321351"><ele>15.0</ele><time>2026-04-03T17:23:55Z</time></trkpt><trkpt lat="45.38332672522044" lon="11.814822353713502"><ele>14.0</ele><time>2026-04-03T17:23:56Z</time></trkpt><trkpt lat="45.383297659259405" lon="11.81456944426459"><ele>13.0</ele><time>2026-04-03T17:23:57Z</time></trkpt><trkpt lat="45.38327842685026" lon="11.814348842212896"><ele>12.0</ele><time>2026-04-03T17:23:58Z</time></trkpt><trkpt lat="45.38325256891271" lon="11.814106805408658"><ele>11.666666666666666</ele><time>2026-04-03T17:23:59Z</time></trkpt><trkpt lat="45.38322886571839" lon="11.813866649435543"><ele>11.333333333333332</ele><time>2026-04-03T17:24:00Z</time></trkpt><trkpt lat="45.38320009316717" lon="11.81363842978965"><ele>11.0</ele><time>2026-04-03T17:24:01Z</time></trkpt><trkpt lat="45.38315357678806" lon="11.813422525982714"><ele>11.0</ele><time>2026-04-03T17:24:02Z</time></trkpt><trkpt lat="45.383115057430246" lon="11.813211644352052"><ele>11.0</ele><time>2026-04-03T17:24:03Z</time></trkpt><trkpt lat="45.383085716820275" lon="11.812978266341673"><ele>11.0</ele><time>2026-04-03T17:24:04Z</time></trkpt><trkpt lat="45.38303268828035" lon="11.812754404413253"><ele>10.666666666666666</ele><time>2026-04-03T17:24:05Z</time></trkpt><trkpt lat="45.382964483186555" lon="11.812530197616205"><ele>10.333333333333334</ele><time>2026-04-03T17:24:06Z</time></trkpt><trkpt lat="45.38290720108523" lon="11.812307315520844"><ele>10.0</ele><time>2026-04-03T17:24:07Z</time></trkpt><trkpt lat="45.382852678632794" lon="11.812080262025193"><ele>10.0</ele><time>2026-04-03T17:24:08Z</time></trkpt><trkpt lat="45.38278662945937" lon="11.811856501271672"><ele>10.0</ele><time>2026-04-03T17:24:09Z</time></trkpt><trkpt lat="45.38270819656624" lon="11.811639612390262"><ele>10.0</ele><time>2026-04-03T17:24:10Z</time></trkpt><trkpt lat="45.382627662022614" lon="11.811428141797155"><ele>10.333333333333334</ele><time>2026-04-03T17:24:11Z</time></trkpt><trkpt lat="45.38254008049949" lon="11.811214027229232"><ele>10.666666666666666</ele><time>2026-04-03T17:24:12Z</time></trkpt><trkpt lat="45.3824551812269" lon="11.811005919516585"><ele>11.0</ele><time>2026-04-03T17:24:13Z</time></trkpt><trkpt lat="45.38235808312089" lon="11.810816541037774"><ele>11.0</ele><time>2026-04-03T17:24:14Z</time></trkpt><trkpt lat="45.382258714676055" lon="11.81062197255574"><ele>11.0</ele><time>2026-04-03T17:24:15Z</time></trkpt><trkpt lat="45.38214808029904" lon="11.810431693616087"><ele>11.0</ele><time>2026-04-03T17:24:16Z</time></trkpt><trkpt lat="45.382029050701874" lon="11.810248109375106"><ele>11.333333333333332</ele><time>2026-04-03T17:24:17Z</time></trkpt><trkpt lat="45.381906503599865" lon="11.810069578127994"><ele>11.666666666666666</ele><time>2026-04-03T17:24:18Z</time></trkpt><trkpt lat="45.38177583340976" lon="11.80988982033986"><ele>12.0</ele><time>2026-04-03T17:24:19Z</time></trkpt><trkpt lat="45.38164192506437" lon="11.809714487445358"><ele>12.0</ele><time>2026-04-03T17:24:20Z</time></trkpt><trkpt lat="45.38150423023974" lon="11.809546699396627"><ele>12.0</ele><time>2026-04-03T17:24:21Z</time></trkpt><trkpt lat="45.38136451097536" lon="11.809386313761948"><ele>12.0</ele><time>2026-04-03T17:24:22Z</time></trkpt><trkpt lat="45.381233400309775" lon="11.809219924534036"><ele>11.666666666666666</ele><time>2026-04-03T17:24:23Z</time></trkpt><trkpt lat="45.38109733839238" lon="11.809057213025246"><ele>11.333333333333332</ele><time>2026-04-03T17:24:24Z</time></trkpt><trkpt lat="45.3809623447255" lon="11.808893451051222"><ele>11.0</ele><time>2026-04-03T17:24:25Z</time></trkpt><trkpt lat="45.38082158220264" lon="11.808730644202177"><ele>11.0</ele><time>2026-04-03T17:24:26Z</time></trkpt><trkpt lat="45.380687649514236" lon="11.80857252791529"><ele>11.0</ele><time>2026-04-03T17:24:27Z</time></trkpt><trkpt lat="45.38054980736423" lon="11.808413028390355"><ele>11.0</ele><time>2026-04-03T17:24:28Z</time></trkpt><trkpt lat="45.3804152278126" lon="11.808251324121075"><ele>11.333333333333332</ele><time>2026-04-03T17:24:29Z</time></trkpt><trkpt lat="45.3802858453069" lon="11.80809582752144"><ele>11.666666666666666</ele><time>2026-04-03T17:24:30Z</time></trkpt><trkpt lat="45.38015224629909" lon="11.807933864613982"><ele>12.0</ele><time>2026-04-03T17:24:31Z</time></trkpt><trkpt lat="45.38001535863152" lon="11.807772722659559"><ele>11.666666666666666</ele><time>2026-04-03T17:24:32Z</time></trkpt><trkpt lat="45.37988046393965" lon="11.807606381020369"><ele>11.333333333333332</ele><time>2026-04-03T17:24:33Z</time></trkpt><trkpt lat="45.379744546133864" lon="11.807444525965785"><ele>11.0</ele><time>2026-04-03T17:24:34Z</time></trkpt><trkpt lat="45.37961169810671" lon="11.807289268939163"><ele>11.0</ele><time>2026-04-03T17:24:35Z</time></trkpt><trkpt lat="45.379478356335554" lon="11.807137229499538"><ele>11.0</ele><time>2026-04-03T17:24:36Z</time></trkpt><trkpt lat="45.37935177815539" lon="11.806987415227125"><ele>11.0</ele><time>2026-04-03T17:24:37Z</time></trkpt><trkpt lat="45.37923176646158" lon="11.806835017333114"><ele>11.0</ele><time>2026-04-03T17:24:38Z</time></trkpt><trkpt lat="45.37910717819104" lon="11.806686973976433"><ele>11.0</ele><time>2026-04-03T17:24:39Z</time></trkpt><trkpt lat="45.37898237095722" lon="11.80654173571325"><ele>11.0</ele><time>2026-04-03T17:24:40Z</time></trkpt><trkpt lat="45.37886513006725" lon="11.806391978867563"><ele>11.25</ele><time>2026-04-03T17:24:41Z</time></trkpt><trkpt lat="45.378757768415205" lon="11.806252491593227"><ele>11.5</ele><time>2026-04-03T17:24:42Z</time></trkpt><trkpt lat="45.378642394723336" lon="11.806110691319189"><ele>11.75</ele><time>2026-04-03T17:24:43Z</time></trkpt><trkpt lat="45.37853152170617" lon="11.805966472171715"><ele>12.0</ele><time>2026-04-03T17:24:44Z</time></trkpt><trkpt lat="45.378428357605145" lon="11.805820563952148"><ele>12.0</ele><time>2026-04-03T17:24:45Z</time></trkpt><trkpt lat="45.378337896460884" lon="11.805671625917686"><ele>12.0</ele><time>2026-04-03T17:24:46Z</time></trkpt><trkpt lat="45.37824907071135" lon="11.80552231128383"><ele>12.0</ele><time>2026-04-03T17:24:47Z</time></trkpt><trkpt lat="45.37816563567092" lon="11.80537707540171"><ele>12.0</ele><time>2026-04-03T17:24:48Z</time></trkpt><trkpt lat="45.37807978309762" lon="11.805237901606821"><ele>12.0</ele><time>2026-04-03T17:24:49Z</time></trkpt><trkpt lat="45.37800588857819" lon="11.805093713820613"><ele>12.0</ele><time>2026-04-03T17:24:50Z</time></trkpt><trkpt lat="45.37794216524503" lon="11.804949040192819"><ele>12.0</ele><time>2026-04-03T17:24:51Z</time></trkpt><trkpt lat="45.37787120685417" lon="11.804794638078855"><ele>12.0</ele><time>2026-04-03T17:24:52Z</time></trkpt><trkpt lat="45.37780955520638" lon="11.804639555274358"><ele>12.0</ele><time>2026-04-03T17:24:53Z</time></trkpt><trkpt lat="45.37774837201812" lon="11.804483398756846"><ele>12.0</ele><time>2026-04-03T17:24:54Z</time></trkpt><trkpt lat="45.377690232676635" lon="11.804313965531346"><ele>12.0</ele><time>2026-04-03T17:24:55Z</time></trkpt><trkpt lat="45.377633850535986" lon="11.804142027499774"><ele>12.0</ele><time>2026-04-03T17:24:56Z</time></trkpt><trkpt lat="45.37758360805891" lon="11.80397165526701"><ele>12.0</ele><time>2026-04-03T17:24:57Z</time></trkpt><trkpt lat="45.37753284008917" lon="11.803791657167272"><ele>12.0</ele><time>2026-04-03T17:24:58Z</time></trkpt><trkpt lat="45.37748834085555" lon="11.803619111445062"><ele>12.0</ele><time>2026-04-03T17:24:59Z</time></trkpt><trkpt lat="45.37744229959745" lon="11.80343932049929"><ele>12.0</ele><time>2026-04-03T17:25:00Z</time></trkpt><trkpt lat="45.37740207106897" lon="11.80325550036452"><ele>12.0</ele><time>2026-04-03T17:25:01Z</time></trkpt><trkpt lat="45.37736785390406" lon="11.803070106107155"><ele>12.0</ele><time>2026-04-03T17:25:02Z</time></trkpt><trkpt lat="45.377335709972364" lon="11.802880095503326"><ele>12.0</ele><time>2026-04-03T17:25:03Z</time></trkpt><trkpt lat="45.37731194614825" lon="11.802690230460316"><ele>12.0</ele><time>2026-04-03T17:25:04Z</time></trkpt><trkpt lat="45.377292252793566" lon="11.802488229957458"><ele>12.0</ele><time>2026-04-03T17:25:05Z</time></trkpt><trkpt lat="45.37727551078552" lon="11.802286568084499"><ele>12.0</ele><time>2026-04-03T17:25:06Z</time></trkpt><trkpt lat="45.37726450219383" lon="11.802082837987413"><ele>12.0</ele><time>2026-04-03T17:25:07Z</time></trkpt><trkpt lat="45.37726276091232" lon="11.801880112234874"><ele>12.0</ele><time>2026-04-03T17:25:08Z</time></trkpt><trkpt lat="45.37726569377446" lon="11.801682901278918"><ele>12.0</ele><time>2026-04-03T17:25:09Z</time></trkpt><trkpt lat="45.37727275523525" lon="11.801487125028"><ele>12.0</ele><time>2026-04-03T17:25:10Z</time></trkpt><trkpt lat="45.377287542071905" lon="11.801283183793885"><ele>12.0</ele><time>2026-04-03T17:25:11Z</time></trkpt><trkpt lat="45.37730543092197" lon="11.801075639551737"><ele>12.0</ele><time>2026-04-03T17:25:12Z</time></trkpt><trkpt lat="45.37732981561478" lon="11.800859907752725"><ele>11.333333333333334</ele><time>2026-04-03T17:25:13Z</time></trkpt><trkpt lat="45.377361397990434" lon="11.800638867703473"><ele>10.666666666666668</ele><time>2026-04-03T17:25:14Z</time></trkpt><trkpt lat="45.377396972551466" lon="11.80041404458804"><ele>10.0</ele><time>2026-04-03T17:25:15Z</time></trkpt><trkpt lat="45.37744070077739" lon="11.800187863135088"><ele>10.0</ele><time>2026-04-03T17:25:16Z</time></trkpt><trkpt lat="45.377490637058614" lon="11.799967205806421"><ele>10.0</ele><time>2026-04-03T17:25:17Z</time></trkpt><trkpt lat="45.377547378026684" lon="11.799748421767438"><ele>10.0</ele><time>2026-04-03T17:25:18Z</time></trkpt><trkpt lat="45.37760310046701" lon="11.799532442759185"><ele>10.666666666666668</ele><time>2026-04-03T17:25:19Z</time></trkpt><trkpt lat="45.37766107547124" lon="11.799315424813106"><ele>11.333333333333334</ele><time>2026-04-03T17:25:20Z</time></trkpt><trkpt lat="45.37771978363009" lon="11.79910303128976"><ele>12.0</ele><time>2026-04-03T17:25:21Z</time></trkpt><trkpt lat="45.377784972096265" lon="11.798887673802655"><ele>12.0</ele><time>2026-04-03T17:25:22Z</time></trkpt><trkpt lat="45.37784888413241" lon="11.798675180183702"><ele>12.0</ele><time>2026-04-03T17:25:23Z</time></trkpt><trkpt lat="45.3779117645113" lon="11.798462514695979"><ele>12.0</ele><time>2026-04-03T17:25:24Z</time></trkpt><trkpt lat="45.3779754298176" lon="11.79825141232356"><ele>12.666666666666668</ele><time>2026-04-03T17:25:25Z</time></trkpt><trkpt lat="45.37803857240756" lon="11.798039955903043"><ele>13.333333333333334</ele><time>2026-04-03T17:25:26Z</time></trkpt><trkpt lat="45.37809911931715" lon="11.797825258550644"><ele>14.0</ele><time>2026-04-03T17:25:27Z</time></trkpt><trkpt lat="45.3781608426279" lon="11.797606998490838"><ele>14.0</ele><time>2026-04-03T17:25:28Z</time></trkpt><trkpt lat="45.37822732629999" lon="11.797380593322986"><ele>14.0</ele><time>2026-04-03T17:25:29Z</time></trkpt><trkpt lat="45.37829283532877" lon="11.797156457236506"><ele>14.0</ele><time>2026-04-03T17:25:30Z</time></trkpt><trkpt lat="45.378359578809246" lon="11.79693560211503"><ele>13.333333333333334</ele><time>2026-04-03T17:25:31Z</time></trkpt><trkpt lat="45.378428360224994" lon="11.7967130495357"><ele>12.666666666666668</ele><time>2026-04-03T17:25:32Z</time></trkpt><trkpt lat="45.37847459524246" lon="11.796499457856132"><ele>12.0</ele><time>2026-04-03T17:25:33Z</time></trkpt><trkpt lat="45.37853204650016" lon="11.796291385309868"><ele>12.0</ele><time>2026-04-03T17:25:34Z</time></trkpt><trkpt lat="45.378582191754134" lon="11.796096214937032"><ele>12.0</ele><time>2026-04-03T17:25:35Z</time></trkpt><trkpt lat="45.3786340118489" lon="11.795911880157533"><ele>12.0</ele><time>2026-04-03T17:25:36Z</time></trkpt><trkpt lat="45.37868046036174" lon="11.795744941789982"><ele>12.0</ele><time>2026-04-03T17:25:37Z</time></trkpt><trkpt lat="45.37872531594862" lon="11.795581600688783"><ele>11.5</ele><time>2026-04-03T17:25:38Z</time></trkpt><trkpt lat="45.378775521117184" lon="11.7954167577504"><ele>11.0</ele><time>2026-04-03T17:25:39Z</time></trkpt><trkpt lat="45.3788163981072" lon="11.795243147911721"><ele>10.5</ele><time>2026-04-03T17:25:40Z</time></trkpt><trkpt lat="45.37886451802061" lon="11.7950686960496"><ele>10.0</ele><time>2026-04-03T17:25:41Z</time></trkpt><trkpt lat="45.37891221632807" lon="11.794898525953407"><ele>10.0</ele><time>2026-04-03T17:25:42Z</time></trkpt><trkpt lat="45.378963628425346" lon="11.79472462987655"><ele>10.0</ele><time>2026-04-03T17:25:43Z</time></trkpt><trkpt lat="45.3790200061117" lon="11.794544281789761"><ele>10.0</ele><time>2026-04-03T17:25:44Z</time></trkpt><trkpt lat="45.37907394363972" lon="11.794363116733836"><ele>10.0</ele><time>2026-04-03T17:25:45Z</time></trkpt><trkpt lat="45.379130519192465" lon="11.794177433340755"><ele>10.5</ele><time>2026-04-03T17:25:46Z</time></trkpt><trkpt lat="45.37918469153424" lon="11.793993479268476"><ele>11.0</ele><time>2026-04-03T17:25:47Z</time></trkpt><trkpt lat="45.37923986531025" lon="11.79380200118414"><ele>11.5</ele><time>2026-04-03T17:25:48Z</time></trkpt><trkpt lat="45.37929614578998" lon="11.793612154179993"><ele>12.0</ele><time>2026-04-03T17:25:49Z</time></trkpt><trkpt lat="45.37935243175762" lon="11.79341655129652"><ele>12.0</ele><time>2026-04-03T17:25:50Z</time></trkpt><trkpt lat="45.37941597127532" lon="11.793213822760432"><ele>12.0</ele><time>2026-04-03T17:25:51Z</time></trkpt><trkpt lat="45.37947180110225" lon="11.793012627789766"><ele>12.0</ele><time>2026-04-03T17:25:52Z</time></trkpt><trkpt lat="45.37953023263183" lon="11.792813592568379"><ele>11.75</ele><time>2026-04-03T17:25:53Z</time></trkpt><trkpt lat="45.3795868224078" lon="11.792615526880429"><ele>11.5</ele><time>2026-04-03T17:25:54Z</time></trkpt><trkpt lat="45.37964352970309" lon="11.79242134351855"><ele>11.25</ele><time>2026-04-03T17:25:55Z</time></trkpt><trkpt lat="45.37970257816754" lon="11.792229228653229"><ele>11.0</ele><time>2026-04-03T17:25:56Z</time></trkpt><trkpt lat="45.379758871855046" lon="11.792038243952142"><ele>11.0</ele><time>2026-04-03T17:25:57Z</time></trkpt><trkpt lat="45.379813599112715" lon="11.791852058373523"><ele>11.0</ele><time>2026-04-03T17:25:58Z</time></trkpt><trkpt lat="45.37986320817584" lon="11.791663690757817"><ele>11.0</ele><time>2026-04-03T17:25:59Z</time></trkpt><trkpt lat="45.37992359863652" lon="11.791476291775696"><ele>11.0</ele><time>2026-04-03T17:26:00Z</time></trkpt><trkpt lat="45.379975430756424" lon="11.791288349257961"><ele>11.0</ele><time>2026-04-03T17:26:01Z</time></trkpt><trkpt lat="45.38003141852167" lon="11.791092739283147"><ele>11.0</ele><time>2026-04-03T17:26:02Z</time></trkpt><trkpt lat="45.380088394741925" lon="11.790892476216284"><ele>11.0</ele><time>2026-04-03T17:26:03Z</time></trkpt><trkpt lat="45.38014616655033" lon="11.790692081933674"><ele>11.0</ele><time>2026-04-03T17:26:04Z</time></trkpt><trkpt lat="45.380205661585755" lon="11.79049103975868"><ele>11.0</ele><time>2026-04-03T17:26:05Z</time></trkpt><trkpt lat="45.38026388257881" lon="11.790288504046838"><ele>11.0</ele><time>2026-04-03T17:26:06Z</time></trkpt><trkpt lat="45.380320940301296" lon="11.790085763834785"><ele>11.333333333333332</ele><time>2026-04-03T17:26:07Z</time></trkpt><trkpt lat="45.38037864213725" lon="11.78987936047772"><ele>11.666666666666666</ele><time>2026-04-03T17:26:08Z</time></trkpt><trkpt lat="45.380436677009136" lon="11.789672672702153"><ele>12.0</ele><time>2026-04-03T17:26:09Z</time></trkpt><trkpt lat="45.38049526713668" lon="11.789472121813928"><ele>12.0</ele><time>2026-04-03T17:26:10Z</time></trkpt><trkpt lat="45.38055248890171" lon="11.789275247658345"><ele>12.0</ele><time>2026-04-03T17:26:11Z</time></trkpt><trkpt lat="45.38060957444292" lon="11.789075798364157"><ele>12.0</ele><time>2026-04-03T17:26:12Z</time></trkpt><trkpt lat="45.38066698380523" lon="11.788877771229146"><ele>12.0</ele><time>2026-04-03T17:26:13Z</time></trkpt><trkpt lat="45.380721983886126" lon="11.788685375886612"><ele>12.0</ele><time>2026-04-03T17:26:14Z</time></trkpt><trkpt lat="45.380778245383574" lon="11.788495558179429"><ele>12.0</ele><time>2026-04-03T17:26:15Z</time></trkpt><trkpt lat="45.380834994821996" lon="11.788301946599121"><ele>12.0</ele><time>2026-04-03T17:26:16Z</time></trkpt><trkpt lat="45.38089173229958" lon="11.788108134029914"><ele>12.0</ele><time>2026-04-03T17:26:17Z</time></trkpt><trkpt lat="45.38094785595326" lon="11.787912450087136"><ele>12.0</ele><time>2026-04-03T17:26:18Z</time></trkpt><trkpt lat="45.381002233639144" lon="11.7877215869186"><ele>12.0</ele><time>2026-04-03T17:26:19Z</time></trkpt><trkpt lat="45.38105668515236" lon="11.787533643965972"><ele>12.0</ele><time>2026-04-03T17:26:20Z</time></trkpt><trkpt lat="45.38110999962643" lon="11.787345894534372"><ele>11.75</ele><time>2026-04-03T17:26:21Z</time></trkpt><trkpt lat="45.38116430456866" lon="11.787156381751965"><ele>11.5</ele><time>2026-04-03T17:26:22Z</time></trkpt><trkpt lat="45.38121742826264" lon="11.786971283734157"><ele>11.25</ele><time>2026-04-03T17:26:23Z</time></trkpt><trkpt lat="45.3812709795576" lon="11.786787358390082"><ele>11.0</ele><time>2026-04-03T17:26:24Z</time></trkpt><trkpt lat="45.38132560338206" lon="11.78659964785071"><ele>11.0</ele><time>2026-04-03T17:26:25Z</time></trkpt><trkpt lat="45.38138212122385" lon="11.786408388683423"><ele>11.0</ele><time>2026-04-03T17:26:26Z</time></trkpt><trkpt lat="45.381441569544144" lon="11.78621309811071"><ele>11.0</ele><time>2026-04-03T17:26:27Z</time></trkpt><trkpt lat="45.381499935517155" lon="11.786008736909244"><ele>10.666666666666666</ele><time>2026-04-03T17:26:28Z</time></trkpt><trkpt lat="45.38155939773344" lon="11.785809439241268"><ele>10.333333333333334</ele><time>2026-04-03T17:26:29Z</time></trkpt><trkpt lat="45.38162273511572" lon="11.78561290351405"><ele>10.0</ele><time>2026-04-03T17:26:30Z</time></trkpt><trkpt lat="45.38168052876807" lon="11.785422074277829"><ele>10.0</ele><time>2026-04-03T17:26:31Z</time></trkpt><trkpt lat="45.381742239308174" lon="11.7852296933409"><ele>10.0</ele><time>2026-04-03T17:26:32Z</time></trkpt><trkpt lat="45.381809088010115" lon="11.78503588000379"><ele>10.0</ele><time>2026-04-03T17:26:33Z</time></trkpt><trkpt lat="45.38187563891672" lon="11.784841718995498"><ele>10.0</ele><time>2026-04-03T17:26:34Z</time></trkpt><trkpt lat="45.3819427947424" lon="11.784651590955056"><ele>10.0</ele><time>2026-04-03T17:26:35Z</time></trkpt><trkpt lat="45.38201312184385" lon="11.784460143380358"><ele>10.0</ele><time>2026-04-03T17:26:36Z</time></trkpt><trkpt lat="45.38208297108826" lon="11.784269216831898"><ele>10.0</ele><time>2026-04-03T17:26:37Z</time></trkpt><trkpt lat="45.38215434099101" lon="11.784079036041375"><ele>10.0</ele><time>2026-04-03T17:26:38Z</time></trkpt><trkpt lat="45.3822279884676" lon="11.783885922234479"><ele>10.0</ele><time>2026-04-03T17:26:39Z</time></trkpt><trkpt lat="45.38230238259614" lon="11.783696361434554"><ele>10.0</ele><time>2026-04-03T17:26:40Z</time></trkpt><trkpt lat="45.38237984875342" lon="11.78350122999551"><ele>10.0</ele><time>2026-04-03T17:26:41Z</time></trkpt><trkpt lat="45.38245670228724" lon="11.783318000001385"><ele>10.0</ele><time>2026-04-03T17:26:42Z</time></trkpt><trkpt lat="45.382525604166986" lon="11.783140948872195"><ele>10.0</ele><time>2026-04-03T17:26:43Z</time></trkpt><trkpt lat="45.38260355908004" lon="11.782962549126644"><ele>10.0</ele><time>2026-04-03T17:26:44Z</time></trkpt><trkpt lat="45.38268129689265" lon="11.782789911512015"><ele>10.0</ele><time>2026-04-03T17:26:45Z</time></trkpt><trkpt lat="45.38275656680965" lon="11.782618941491261"><ele>10.0</ele><time>2026-04-03T17:26:46Z</time></trkpt><trkpt lat="45.3828278361788" lon="11.782453091186563"><ele>10.0</ele><time>2026-04-03T17:26:47Z</time></trkpt><trkpt lat="45.38290005940249" lon="11.782289321033383"><ele>10.0</ele><time>2026-04-03T17:26:48Z</time></trkpt><trkpt lat="45.38297287161552" lon="11.782133056626444"><ele>10.0</ele><time>2026-04-03T17:26:49Z</time></trkpt><trkpt lat="45.38304195591294" lon="11.781982012144297"><ele>10.0</ele><time>2026-04-03T17:26:50Z</time></trkpt><trkpt lat="45.383107285393976" lon="11.78184451880237"><ele>10.0</ele><time>2026-04-03T17:26:51Z</time></trkpt><trkpt lat="45.38316929270089" lon="11.781708062027377"><ele>10.2</ele><time>2026-04-03T17:26:52Z</time></trkpt><trkpt lat="45.38322169707629" lon="11.781590137797936"><ele>10.4</ele><time>2026-04-03T17:26:53Z</time></trkpt><trkpt lat="45.383271330512784" lon="11.781475272556655"><ele>10.600000000000001</ele><time>2026-04-03T17:26:54Z</time></trkpt><trkpt lat="45.383322278229954" lon="11.781363897534433"><ele>10.8</ele><time>2026-04-03T17:26:55Z</time></trkpt><trkpt lat="45.38336318863228" lon="11.781270690457356"><ele>11.0</ele><time>2026-04-03T17:26:56Z</time></trkpt><trkpt lat="45.383417909123516" lon="11.781146448850553"><ele>11.0</ele><time>2026-04-03T17:26:58Z</time></trkpt><trkpt lat="45.38346225889822" lon="11.781048820237514"><ele>11.0</ele><time>2026-04-03T17:27:00Z</time></trkpt><trkpt lat="45.38351611289983" lon="11.780944693441144"><ele>11.0</ele><time>2026-04-03T17:27:02Z</time></trkpt><trkpt lat="45.3836066683161" lon="11.780859789123586"><ele>11.0</ele><time>2026-04-03T17:27:04Z</time></trkpt><trkpt lat="45.38372749673603" lon="11.78081604291333"><ele>11.0</ele><time>2026-04-03T17:27:06Z</time></trkpt><trkpt lat="45.383787886925965" lon="11.780790455791912"><ele>11.166666666666666</ele><time>2026-04-03T17:27:07Z</time></trkpt><trkpt lat="45.38387121422775" lon="11.780671626078028"><ele>11.333333333333332</ele><time>2026-04-03T17:27:09Z</time></trkpt><trkpt lat="45.38388355161631" lon="11.78058333992145"><ele>11.5</ele><time>2026-04-03T17:27:10Z</time></trkpt><trkpt lat="45.38388059218674" lon="11.780492536557611"><ele>11.666666666666666</ele><time>2026-04-03T17:27:11Z</time></trkpt><trkpt lat="45.38381074394845" lon="11.780343056145554"><ele>11.833333333333334</ele><time>2026-04-03T17:27:13Z</time></trkpt><trkpt lat="45.38375649724852" lon="11.780276159113336"><ele>12.0</ele><time>2026-04-03T17:27:14Z</time></trkpt><trkpt lat="45.38369563078972" lon="11.780206243829127"><ele>11.6</ele><time>2026-04-03T17:27:15Z</time></trkpt><trkpt lat="45.38363945338831" lon="11.78011855697612"><ele>11.2</ele><time>2026-04-03T17:27:16Z</time></trkpt><trkpt lat="45.38359692488839" lon="11.780010898184353"><ele>10.8</ele><time>2026-04-03T17:27:17Z</time></trkpt><trkpt lat="45.38356282249564" lon="11.779894608743037"><ele>10.4</ele><time>2026-04-03T17:27:18Z</time></trkpt><trkpt lat="45.383523574781925" lon="11.779752322201439"><ele>10.0</ele><time>2026-04-03T17:27:19Z</time></trkpt><trkpt lat="45.38347785908977" lon="11.779600701574465"><ele>10.0</ele><time>2026-04-03T17:27:20Z</time></trkpt><trkpt lat="45.383422858469466" lon="11.779447995047327"><ele>10.0</ele><time>2026-04-03T17:27:21Z</time></trkpt><trkpt lat="45.38337437532162" lon="11.779285560309663"><ele>10.0</ele><time>2026-04-03T17:27:22Z</time></trkpt><trkpt lat="45.3833247606458" lon="11.77911282803879"><ele>10.0</ele><time>2026-04-03T17:27:23Z</time></trkpt><trkpt lat="45.383273912661096" lon="11.778936588819647"><ele>9.75</ele><time>2026-04-03T17:27:24Z</time></trkpt><trkpt lat="45.38321898689733" lon="11.778749560069071"><ele>9.5</ele><time>2026-04-03T17:27:25Z</time></trkpt><trkpt lat="45.38315823073808" lon="11.778555490087633"><ele>9.25</ele><time>2026-04-03T17:27:26Z</time></trkpt><trkpt lat="45.38310012457097" lon="11.778360800566807"><ele>9.0</ele><time>2026-04-03T17:27:27Z</time></trkpt><trkpt lat="45.38304119561991" lon="11.778166392292231"><ele>9.25</ele><time>2026-04-03T17:27:28Z</time></trkpt><trkpt lat="45.382981946320164" lon="11.777967921540663"><ele>9.5</ele><time>2026-04-03T17:27:29Z</time></trkpt><trkpt lat="45.382927601416455" lon="11.77777534693388"><ele>9.75</ele><time>2026-04-03T17:27:30Z</time></trkpt><trkpt lat="45.38287050651864" lon="11.777577519687247"><ele>10.0</ele><time>2026-04-03T17:27:31Z</time></trkpt><trkpt lat="45.382814103852645" lon="11.77737693387829"><ele>10.666666666666668</ele><time>2026-04-03T17:27:32Z</time></trkpt><trkpt lat="45.38275778405037" lon="11.777173907989262"><ele>11.333333333333334</ele><time>2026-04-03T17:27:33Z</time></trkpt><trkpt lat="45.382699021161976" lon="11.776966437034336"><ele>12.0</ele><time>2026-04-03T17:27:34Z</time></trkpt><trkpt lat="45.3826401872979" lon="11.776753844753928"><ele>12.666666666666668</ele><time>2026-04-03T17:27:35Z</time></trkpt><trkpt lat="45.38257960086067" lon="11.776536938197374"><ele>13.333333333333334</ele><time>2026-04-03T17:27:36Z</time></trkpt><trkpt lat="45.38251566816484" lon="11.776321789117743"><ele>14.0</ele><time>2026-04-03T17:27:37Z</time></trkpt><trkpt lat="45.38244591157277" lon="11.776098276302452"><ele>13.333333333333334</ele><time>2026-04-03T17:27:38Z</time></trkpt><trkpt lat="45.38238014855195" lon="11.775873450002782"><ele>12.666666666666668</ele><time>2026-04-03T17:27:39Z</time></trkpt><trkpt lat="45.3823132433967" lon="11.775649370563405"><ele>12.0</ele><time>2026-04-03T17:27:40Z</time></trkpt><trkpt lat="45.38224824861865" lon="11.775420648557732"><ele>12.0</ele><time>2026-04-03T17:27:41Z</time></trkpt><trkpt lat="45.3821845309313" lon="11.775193246097595"><ele>12.0</ele><time>2026-04-03T17:27:42Z</time></trkpt><trkpt lat="45.3821193496998" lon="11.774967927762841"><ele>12.0</ele><time>2026-04-03T17:27:43Z</time></trkpt><trkpt lat="45.382055342043095" lon="11.774738653689692"><ele>12.0</ele><time>2026-04-03T17:27:44Z</time></trkpt><trkpt lat="45.38198972164399" lon="11.774506866802543"><ele>12.0</ele><time>2026-04-03T17:27:45Z</time></trkpt><trkpt lat="45.381924930578414" lon="11.774267969849324"><ele>12.0</ele><time>2026-04-03T17:27:46Z</time></trkpt><trkpt lat="45.381854130422774" lon="11.774027267422847"><ele>12.0</ele><time>2026-04-03T17:27:47Z</time></trkpt><trkpt lat="45.381785986545694" lon="11.773803828953248"><ele>12.0</ele><time>2026-04-03T17:27:48Z</time></trkpt><trkpt lat="45.381718136386695" lon="11.773570343135564"><ele>12.0</ele><time>2026-04-03T17:27:49Z</time></trkpt><trkpt lat="45.381648491778094" lon="11.773335147210805"><ele>12.0</ele><time>2026-04-03T17:27:50Z</time></trkpt><trkpt lat="45.38157760217222" lon="11.77310979085923"><ele>12.0</ele><time>2026-04-03T17:27:51Z</time></trkpt><trkpt lat="45.3815009823054" lon="11.772882668974676"><ele>12.0</ele><time>2026-04-03T17:27:52Z</time></trkpt><trkpt lat="45.38143647804644" lon="11.772654789443196"><ele>12.0</ele><time>2026-04-03T17:27:53Z</time></trkpt><trkpt lat="45.38136864103614" lon="11.772431723889836"><ele>12.0</ele><time>2026-04-03T17:27:54Z</time></trkpt><trkpt lat="45.38127595941864" lon="11.77220481531784"><ele>12.0</ele><time>2026-04-03T17:27:55Z</time></trkpt><trkpt lat="45.38122089361917" lon="11.771980601378283"><ele>12.0</ele><time>2026-04-03T17:27:56Z</time></trkpt><trkpt lat="45.381154838195506" lon="11.771760669414318"><ele>12.0</ele><time>2026-04-03T17:27:57Z</time></trkpt><trkpt lat="45.38109192100041" lon="11.771538185361832"><ele>12.0</ele><time>2026-04-03T17:27:58Z</time></trkpt><trkpt lat="45.38102200295969" lon="11.771328442272349"><ele>12.0</ele><time>2026-04-03T17:27:59Z</time></trkpt><trkpt lat="45.3809544387702" lon="11.771114730170865"><ele>12.0</ele><time>2026-04-03T17:28:00Z</time></trkpt><trkpt lat="45.38089229310637" lon="11.77090335188264"><ele>12.0</ele><time>2026-04-03T17:28:01Z</time></trkpt><trkpt lat="45.380831073577774" lon="11.770697024439961"><ele>12.333333333333332</ele><time>2026-04-03T17:28:02Z</time></trkpt><trkpt lat="45.38076651824641" lon="11.770489389309393"><ele>12.666666666666666</ele><time>2026-04-03T17:28:03Z</time></trkpt><trkpt lat="45.380706990228326" lon="11.77028024708818"><ele>13.0</ele><time>2026-04-03T17:28:04Z</time></trkpt><trkpt lat="45.38064623303465" lon="11.77007433321961"><ele>13.333333333333332</ele><time>2026-04-03T17:28:05Z</time></trkpt><trkpt lat="45.38058791360442" lon="11.769868618507935"><ele>13.666666666666668</ele><time>2026-04-03T17:28:06Z</time></trkpt><trkpt lat="45.380528977713794" lon="11.769663102451352"><ele>14.0</ele><time>2026-04-03T17:28:07Z</time></trkpt><trkpt lat="45.380468533802954" lon="11.769465047505376"><ele>13.75</ele><time>2026-04-03T17:28:08Z</time></trkpt><trkpt lat="45.38041660266799" lon="11.76927010292148"><ele>13.5</ele><time>2026-04-03T17:28:09Z</time></trkpt><trkpt lat="45.380358060035185" lon="11.769078708404976"><ele>13.25</ele><time>2026-04-03T17:28:10Z</time></trkpt><trkpt lat="45.38030037506438" lon="11.768894614661587"><ele>13.0</ele><time>2026-04-03T17:28:11Z</time></trkpt><trkpt lat="45.380243051796334" lon="11.76870873264004"><ele>13.0</ele><time>2026-04-03T17:28:12Z</time></trkpt><trkpt lat="45.38018699492586" lon="11.768528685006299"><ele>13.0</ele><time>2026-04-03T17:28:13Z</time></trkpt><trkpt lat="45.38013244627463" lon="11.768354283661793"><ele>13.0</ele><time>2026-04-03T17:28:14Z</time></trkpt><trkpt lat="45.38008084492931" lon="11.768183461791677"><ele>13.0</ele><time>2026-04-03T17:28:15Z</time></trkpt><trkpt lat="45.38003719594949" lon="11.768024529389132"><ele>13.0</ele><time>2026-04-03T17:28:16Z</time></trkpt><trkpt lat="45.37999826328447" lon="11.767888703751629"><ele>13.0</ele><time>2026-04-03T17:28:17Z</time></trkpt><trkpt lat="45.379961330104415" lon="11.767773145163869"><ele>13.0</ele><time>2026-04-03T17:28:18Z</time></trkpt><trkpt lat="45.37993725819379" lon="11.767680096959161"><ele>13.0</ele><time>2026-04-03T17:28:19Z</time></trkpt><trkpt lat="45.379920507413416" lon="11.767532893460253"><ele>13.0</ele><time>2026-04-03T17:28:21Z</time></trkpt><trkpt lat="45.37990338570614" lon="11.767377056869574"><ele>13.0</ele><time>2026-04-03T17:28:23Z</time></trkpt><trkpt lat="45.37982390953393" lon="11.767231412374986"><ele>13.0</ele><time>2026-04-03T17:28:25Z</time></trkpt><trkpt lat="45.379777311799394" lon="11.767147762462606"><ele>13.0</ele><time>2026-04-03T17:28:26Z</time></trkpt><trkpt lat="45.37973896321314" lon="11.767049209625682"><ele>13.0</ele><time>2026-04-03T17:28:27Z</time></trkpt><trkpt lat="45.379709636029176" lon="11.766944795922912"><ele>13.0</ele><time>2026-04-03T17:28:28Z</time></trkpt><trkpt lat="45.379676972793796" lon="11.76682317311569"><ele>13.0</ele><time>2026-04-03T17:28:29Z</time></trkpt><trkpt lat="45.37963918266357" lon="11.766695437518875"><ele>13.0</ele><time>2026-04-03T17:28:30Z</time></trkpt><trkpt lat="45.379598507968346" lon="11.76655398660218"><ele>13.0</ele><time>2026-04-03T17:28:31Z</time></trkpt><trkpt lat="45.379555194274865" lon="11.766403255811046"><ele>13.0</ele><time>2026-04-03T17:28:32Z</time></trkpt><trkpt lat="45.37950953193886" lon="11.766241892773929"><ele>13.0</ele><time>2026-04-03T17:28:33Z</time></trkpt><trkpt lat="45.37946351829515" lon="11.766080751803356"><ele>13.25</ele><time>2026-04-03T17:28:34Z</time></trkpt><trkpt lat="45.37941643078647" lon="11.765917260042215"><ele>13.5</ele><time>2026-04-03T17:28:35Z</time></trkpt><trkpt lat="45.379368661422355" lon="11.765752014643166"><ele>13.75</ele><time>2026-04-03T17:28:36Z</time></trkpt><trkpt lat="45.37932271140241" lon="11.765584684838268"><ele>14.0</ele><time>2026-04-03T17:28:37Z</time></trkpt><trkpt lat="45.379265094006016" lon="11.765409316125584"><ele>14.0</ele><time>2026-04-03T17:28:38Z</time></trkpt><trkpt lat="45.37921276434778" lon="11.765236103071299"><ele>14.0</ele><time>2026-04-03T17:28:39Z</time></trkpt><trkpt lat="45.37916052937655" lon="11.765058384996133"><ele>14.0</ele><time>2026-04-03T17:28:40Z</time></trkpt><trkpt lat="45.379103715515754" lon="11.764879868246432"><ele>14.0</ele><time>2026-04-03T17:28:41Z</time></trkpt><trkpt lat="45.37904699802234" lon="11.764700608130054"><ele>14.0</ele><time>2026-04-03T17:28:42Z</time></trkpt><trkpt lat="45.37899193381228" lon="11.764520070903389"><ele>14.0</ele><time>2026-04-03T17:28:43Z</time></trkpt><trkpt lat="45.37893545271542" lon="11.764339572990515"><ele>14.0</ele><time>2026-04-03T17:28:44Z</time></trkpt><trkpt lat="45.378878830682645" lon="11.764154878610146"><ele>14.0</ele><time>2026-04-03T17:28:45Z</time></trkpt><trkpt lat="45.378823580722475" lon="11.763968135459061"><ele>14.25</ele><time>2026-04-03T17:28:46Z</time></trkpt><trkpt lat="45.37876842553606" lon="11.763780109782036"><ele>14.5</ele><time>2026-04-03T17:28:47Z</time></trkpt><trkpt lat="45.37871100178593" lon="11.763586389413181"><ele>14.75</ele><time>2026-04-03T17:28:48Z</time></trkpt><trkpt lat="45.37865323136884" lon="11.763390627565828"><ele>15.0</ele><time>2026-04-03T17:28:49Z</time></trkpt><trkpt lat="45.378594179194224" lon="11.763199600890028"><ele>15.0</ele><time>2026-04-03T17:28:50Z</time></trkpt><trkpt lat="45.378543570691974" lon="11.763014737546749"><ele>15.0</ele><time>2026-04-03T17:28:51Z</time></trkpt><trkpt lat="45.3784890519552" lon="11.762826224630738"><ele>15.0</ele><time>2026-04-03T17:28:52Z</time></trkpt><trkpt lat="45.378440612620174" lon="11.762634962614014"><ele>15.0</ele><time>2026-04-03T17:28:53Z</time></trkpt><trkpt lat="45.37838232101971" lon="11.76244056229906"><ele>15.0</ele><time>2026-04-03T17:28:54Z</time></trkpt><trkpt lat="45.37832092100124" lon="11.762244495392464"><ele>15.0</ele><time>2026-04-03T17:28:55Z</time></trkpt><trkpt lat="45.378259168017756" lon="11.762040578351096"><ele>15.0</ele><time>2026-04-03T17:28:56Z</time></trkpt><trkpt lat="45.378192907878976" lon="11.76183241595948"><ele>14.666666666666668</ele><time>2026-04-03T17:28:57Z</time></trkpt><trkpt lat="45.37812489290921" lon="11.76161650471615"><ele>14.333333333333334</ele><time>2026-04-03T17:28:58Z</time></trkpt><trkpt lat="45.37805265671702" lon="11.76140291016051"><ele>14.0</ele><time>2026-04-03T17:28:59Z</time></trkpt><trkpt lat="45.37798767572055" lon="11.761193701763819"><ele>14.666666666666668</ele><time>2026-04-03T17:29:00Z</time></trkpt><trkpt lat="45.37792158823905" lon="11.760980551578164"><ele>15.333333333333332</ele><time>2026-04-03T17:29:01Z</time></trkpt><trkpt lat="45.377857739511406" lon="11.760765500675094"><ele>16.0</ele><time>2026-04-03T17:29:02Z</time></trkpt><trkpt lat="45.37779605793791" lon="11.760551695118053"><ele>16.0</ele><time>2026-04-03T17:29:03Z</time></trkpt><trkpt lat="45.37773682502731" lon="11.76034186178879"><ele>16.0</ele><time>2026-04-03T17:29:04Z</time></trkpt><trkpt lat="45.377675623662114" lon="11.760130323728584"><ele>16.0</ele><time>2026-04-03T17:29:05Z</time></trkpt><trkpt lat="45.37761399502957" lon="11.759919503832283"><ele>16.333333333333332</ele><time>2026-04-03T17:29:06Z</time></trkpt><trkpt lat="45.37754819136841" lon="11.759705268932873"><ele>16.666666666666668</ele><time>2026-04-03T17:29:07Z</time></trkpt><trkpt lat="45.37748359612688" lon="11.75948859256036"><ele>17.0</ele><time>2026-04-03T17:29:08Z</time></trkpt><trkpt lat="45.377416665591" lon="11.759272461296934"><ele>16.333333333333336</ele><time>2026-04-03T17:29:09Z</time></trkpt><trkpt lat="45.37735143249747" lon="11.759061153606805"><ele>15.666666666666668</ele><time>2026-04-03T17:29:10Z</time></trkpt><trkpt lat="45.377287710641006" lon="11.758848124716394"><ele>15.0</ele><time>2026-04-03T17:29:11Z</time></trkpt><trkpt lat="45.37721689008362" lon="11.758635659543126"><ele>14.666666666666668</ele><time>2026-04-03T17:29:12Z</time></trkpt><trkpt lat="45.377149985342825" lon="11.758424823996226"><ele>14.333333333333334</ele><time>2026-04-03T17:29:13Z</time></trkpt><trkpt lat="45.377084048361446" lon="11.75821064802663"><ele>14.0</ele><time>2026-04-03T17:29:14Z</time></trkpt><trkpt lat="45.37701934337381" lon="11.757996234636927"><ele>14.0</ele><time>2026-04-03T17:29:15Z</time></trkpt><trkpt lat="45.37695147538559" lon="11.757777701706281"><ele>14.0</ele><time>2026-04-03T17:29:16Z</time></trkpt><trkpt lat="45.37690174181168" lon="11.757552858120905"><ele>14.0</ele><time>2026-04-03T17:29:17Z</time></trkpt><trkpt lat="45.37683841010908" lon="11.757342764650431"><ele>14.0</ele><time>2026-04-03T17:29:18Z</time></trkpt><trkpt lat="45.3768024713902" lon="11.757131695088804"><ele>14.0</ele><time>2026-04-03T17:29:19Z</time></trkpt><trkpt lat="45.37674698517886" lon="11.75692501568435"><ele>14.0</ele><time>2026-04-03T17:29:20Z</time></trkpt><trkpt lat="45.376690927031774" lon="11.756724296927084"><ele>14.0</ele><time>2026-04-03T17:29:21Z</time></trkpt><trkpt lat="45.37663819398924" lon="11.756523515357472"><ele>14.0</ele><time>2026-04-03T17:29:22Z</time></trkpt><trkpt lat="45.37658585786908" lon="11.75633357122884"><ele>14.0</ele><time>2026-04-03T17:29:23Z</time></trkpt><trkpt lat="45.37652531746312" lon="11.756145262094817"><ele>14.0</ele><time>2026-04-03T17:29:24Z</time></trkpt><trkpt lat="45.376469101833706" lon="11.755959974728912"><ele>14.0</ele><time>2026-04-03T17:29:25Z</time></trkpt><trkpt lat="45.37640180169796" lon="11.755766879969217"><ele>14.0</ele><time>2026-04-03T17:29:26Z</time></trkpt><trkpt lat="45.37632759489034" lon="11.755568480598447"><ele>14.0</ele><time>2026-04-03T17:29:27Z</time></trkpt><trkpt lat="45.37626453816344" lon="11.755369097556082"><ele>14.0</ele><time>2026-04-03T17:29:28Z</time></trkpt><trkpt lat="45.376204008843565" lon="11.755168034021901"><ele>14.0</ele><time>2026-04-03T17:29:29Z</time></trkpt><trkpt lat="45.37613874978105" lon="11.75496481209088"><ele>14.0</ele><time>2026-04-03T17:29:30Z</time></trkpt><trkpt lat="45.37606192026776" lon="11.754765182284716"><ele>14.0</ele><time>2026-04-03T17:29:31Z</time></trkpt><trkpt lat="45.375996832748086" lon="11.754572152025563"><ele>14.0</ele><time>2026-04-03T17:29:32Z</time></trkpt><trkpt lat="45.3759344705267" lon="11.754361983361994"><ele>14.0</ele><time>2026-04-03T17:29:33Z</time></trkpt><trkpt lat="45.37586996113881" lon="11.754153243013556"><ele>13.666666666666668</ele><time>2026-04-03T17:29:34Z</time></trkpt><trkpt lat="45.37579857091763" lon="11.753945020919423"><ele>13.333333333333332</ele><time>2026-04-03T17:29:35Z</time></trkpt><trkpt lat="45.37577227242775" lon="11.753721637164345"><ele>13.0</ele><time>2026-04-03T17:29:36Z</time></trkpt><trkpt lat="45.375706716162334" lon="11.75350987768186"><ele>12.666666666666666</ele><time>2026-04-03T17:29:37Z</time></trkpt><trkpt lat="45.37563809645955" lon="11.753293169713858"><ele>12.333333333333332</ele><time>2026-04-03T17:29:38Z</time></trkpt><trkpt lat="45.37556936339563" lon="11.753077079847111"><ele>12.0</ele><time>2026-04-03T17:29:39Z</time></trkpt><trkpt lat="45.37550460115782" lon="11.752862318008624"><ele>12.333333333333332</ele><time>2026-04-03T17:29:40Z</time></trkpt><trkpt lat="45.37543716567389" lon="11.752656891822001"><ele>12.666666666666666</ele><time>2026-04-03T17:29:41Z</time></trkpt><trkpt lat="45.37537482968334" lon="11.75244783770199"><ele>13.0</ele><time>2026-04-03T17:29:42Z</time></trkpt><trkpt lat="45.37530741260652" lon="11.752233661528546"><ele>13.0</ele><time>2026-04-03T17:29:43Z</time></trkpt><trkpt lat="45.37523819893297" lon="11.752011797657545"><ele>13.0</ele><time>2026-04-03T17:29:44Z</time></trkpt><trkpt lat="45.37517064888128" lon="11.75179880852258"><ele>13.0</ele><time>2026-04-03T17:29:45Z</time></trkpt><trkpt lat="45.37510122208881" lon="11.751579555477898"><ele>13.0</ele><time>2026-04-03T17:29:46Z</time></trkpt><trkpt lat="45.37503357514004" lon="11.751380580434637"><ele>13.0</ele><time>2026-04-03T17:29:47Z</time></trkpt><trkpt lat="45.374966073113036" lon="11.751163975468048"><ele>13.0</ele><time>2026-04-03T17:29:48Z</time></trkpt><trkpt lat="45.37490256316029" lon="11.750953213479683"><ele>13.333333333333332</ele><time>2026-04-03T17:29:49Z</time></trkpt><trkpt lat="45.37484333660475" lon="11.750749800822579"><ele>13.666666666666668</ele><time>2026-04-03T17:29:50Z</time></trkpt><trkpt lat="45.37477998836208" lon="11.750553970931351"><ele>14.0</ele><time>2026-04-03T17:29:51Z</time></trkpt><trkpt lat="45.37472566498718" lon="11.750357340078027"><ele>14.333333333333334</ele><time>2026-04-03T17:29:52Z</time></trkpt><trkpt lat="45.37466319677729" lon="11.750150872833661"><ele>14.666666666666668</ele><time>2026-04-03T17:29:53Z</time></trkpt><trkpt lat="45.374604318924305" lon="11.74995595073469"><ele>15.0</ele><time>2026-04-03T17:29:54Z</time></trkpt><trkpt lat="45.37454714403237" lon="11.749766539371352"><ele>15.0</ele><time>2026-04-03T17:29:55Z</time></trkpt><trkpt lat="45.374505323335775" lon="11.749580997629653"><ele>15.0</ele><time>2026-04-03T17:29:56Z</time></trkpt><trkpt lat="45.37445225300998" lon="11.749390326574668"><ele>15.0</ele><time>2026-04-03T17:29:57Z</time></trkpt><trkpt lat="45.37438894941846" lon="11.749200622965565"><ele>15.0</ele><time>2026-04-03T17:29:58Z</time></trkpt><trkpt lat="45.37432950686306" lon="11.749014362133671"><ele>14.75</ele><time>2026-04-03T17:29:59Z</time></trkpt><trkpt lat="45.3742786905551" lon="11.748825489291068"><ele>14.5</ele><time>2026-04-03T17:30:00Z</time></trkpt><trkpt lat="45.37422146577831" lon="11.748650021341868"><ele>14.25</ele><time>2026-04-03T17:30:01Z</time></trkpt><trkpt lat="45.37416540373991" lon="11.74847440895964"><ele>14.0</ele><time>2026-04-03T17:30:02Z</time></trkpt><trkpt lat="45.37409675842484" lon="11.748287399286639"><ele>13.75</ele><time>2026-04-03T17:30:03Z</time></trkpt><trkpt lat="45.37402978450986" lon="11.748095647039122"><ele>13.5</ele><time>2026-04-03T17:30:04Z</time></trkpt><trkpt lat="45.37397266034044" lon="11.747906148900087"><ele>13.25</ele><time>2026-04-03T17:30:05Z</time></trkpt><trkpt lat="45.373912321157405" lon="11.747713264605"><ele>13.0</ele><time>2026-04-03T17:30:06Z</time></trkpt><trkpt lat="45.37386093205737" lon="11.747506077034307"><ele>13.25</ele><time>2026-04-03T17:30:07Z</time></trkpt><trkpt lat="45.37380095829378" lon="11.747308370707655"><ele>13.5</ele><time>2026-04-03T17:30:08Z</time></trkpt><trkpt lat="45.373742291645264" lon="11.747116444079747"><ele>13.75</ele><time>2026-04-03T17:30:09Z</time></trkpt><trkpt lat="45.37368399796467" lon="11.746926378170034"><ele>14.0</ele><time>2026-04-03T17:30:10Z</time></trkpt><trkpt lat="45.37362472889971" lon="11.746733131850421"><ele>13.5</ele><time>2026-04-03T17:30:11Z</time></trkpt><trkpt lat="45.37356552855869" lon="11.746548115862545"><ele>13.0</ele><time>2026-04-03T17:30:12Z</time></trkpt><trkpt lat="45.373499018806825" lon="11.746374720653744"><ele>12.5</ele><time>2026-04-03T17:30:13Z</time></trkpt><trkpt lat="45.37342275422051" lon="11.746209189469425"><ele>12.0</ele><time>2026-04-03T17:30:14Z</time></trkpt><trkpt lat="45.37334416433345" lon="11.74605920330508"><ele>12.0</ele><time>2026-04-03T17:30:15Z</time></trkpt><trkpt lat="45.37325606037559" lon="11.745935125158388"><ele>12.0</ele><time>2026-04-03T17:30:16Z</time></trkpt><trkpt lat="45.3731772212477" lon="11.745797979352531"><ele>12.0</ele><time>2026-04-03T17:30:17Z</time></trkpt><trkpt lat="45.373089547567815" lon="11.745677225007993"><ele>12.0</ele><time>2026-04-03T17:30:18Z</time></trkpt><trkpt lat="45.37301120213686" lon="11.745562001560103"><ele>12.399999999999999</ele><time>2026-04-03T17:30:19Z</time></trkpt><trkpt lat="45.37293401502962" lon="11.74545779686232"><ele>12.799999999999999</ele><time>2026-04-03T17:30:20Z</time></trkpt><trkpt lat="45.372865345591414" lon="11.745365689270752"><ele>13.2</ele><time>2026-04-03T17:30:21Z</time></trkpt><trkpt lat="45.37281387282519" lon="11.745291569424996"><ele>13.6</ele><time>2026-04-03T17:30:22Z</time></trkpt><trkpt lat="45.37275486867749" lon="11.74517042775755"><ele>14.0</ele><time>2026-04-03T17:30:24Z</time></trkpt><trkpt lat="45.372699821671226" lon="11.745049053514874"><ele>14.000000000000002</ele><time>2026-04-03T17:30:26Z</time></trkpt><trkpt lat="45.372618779233385" lon="11.744918102191226"><ele>14.0</ele><time>2026-04-03T17:30:28Z</time></trkpt><trkpt lat="45.37256088454662" lon="11.744853057357389"><ele>14.0</ele><time>2026-04-03T17:30:29Z</time></trkpt><trkpt lat="45.37250540832601" lon="11.744787556338164"><ele>14.0</ele><time>2026-04-03T17:30:30Z</time></trkpt><trkpt lat="45.37245931353074" lon="11.744697543825486"><ele>14.000000000000002</ele><time>2026-04-03T17:30:31Z</time></trkpt><trkpt lat="45.37242135476142" lon="11.744599962179128"><ele>14.0</ele><time>2026-04-03T17:30:32Z</time></trkpt><trkpt lat="45.372392036843934" lon="11.74448816360765"><ele>14.000000000000002</ele><time>2026-04-03T17:30:33Z</time></trkpt><trkpt lat="45.372373421177386" lon="11.744373779929246"><ele>14.0</ele><time>2026-04-03T17:30:34Z</time></trkpt><trkpt lat="45.372364289686786" lon="11.744255518465545"><ele>14.0</ele><time>2026-04-03T17:30:35Z</time></trkpt><trkpt lat="45.37236583069266" lon="11.74415043601871"><ele>14.0</ele><time>2026-04-03T17:30:36Z</time></trkpt><trkpt lat="45.37235684319934" lon="11.744035895358127"><ele>14.000000000000002</ele><time>2026-04-03T17:30:37Z</time></trkpt><trkpt lat="45.37235740905038" lon="11.743920186176247"><ele>14.0</ele><time>2026-04-03T17:30:38Z</time></trkpt><trkpt lat="45.37237167968443" lon="11.743825177638792"><ele>14.000000000000002</ele><time>2026-04-03T17:30:39Z</time></trkpt><trkpt lat="45.37240290841305" lon="11.74373293520483"><ele>14.0</ele><time>2026-04-03T17:30:40Z</time></trkpt><trkpt lat="45.372436502971354" lon="11.743649408789109"><ele>14.0</ele><time>2026-04-03T17:30:41Z</time></trkpt><trkpt lat="45.37245681772887" lon="11.74356182269295"><ele>14.0</ele><time>2026-04-03T17:30:42Z</time></trkpt><trkpt lat="45.372417080509784" lon="11.743401164343572"><ele>14.000000000000002</ele><time>2026-04-03T17:30:44Z</time></trkpt><trkpt lat="45.372379683170166" lon="11.743319316891538"><ele>14.0</ele><time>2026-04-03T17:30:45Z</time></trkpt><trkpt lat="45.37235337241867" lon="11.743226144499621"><ele>14.000000000000002</ele><time>2026-04-03T17:30:46Z</time></trkpt><trkpt lat="45.372332591741994" lon="11.74310809332183"><ele>14.0</ele><time>2026-04-03T17:30:47Z</time></trkpt><trkpt lat="45.372318941139824" lon="11.742993860891897"><ele>14.0</ele><time>2026-04-03T17:30:48Z</time></trkpt><trkpt lat="45.37230811255108" lon="11.742866506440109"><ele>14.0</ele><time>2026-04-03T17:30:49Z</time></trkpt><trkpt lat="45.372308473810975" lon="11.742764063929718"><ele>14.000000000000002</ele><time>2026-04-03T17:30:50Z</time></trkpt><trkpt lat="45.372332135757176" lon="11.74263546982368"><ele>14.0</ele><time>2026-04-03T17:30:52Z</time></trkpt><trkpt lat="45.37224704340975" lon="11.742306048467498"><ele>14.0</ele><time>2026-04-03T17:32:05Z</time></trkpt><trkpt lat="45.372241289020046" lon="11.742169428149793"><ele>13.999999999999998</ele><time>2026-04-03T17:32:06Z</time></trkpt><trkpt lat="45.372246897719705" lon="11.74200713426792"><ele>13.999999999999998</ele><time>2026-04-03T17:32:07Z</time></trkpt><trkpt lat="45.372244914546336" lon="11.741854634923783"><ele>14.0</ele><time>2026-04-03T17:32:08Z</time></trkpt><trkpt lat="45.37223678221783" lon="11.741721213895847"><ele>14.0</ele><time>2026-04-03T17:32:09Z</time></trkpt><trkpt lat="45.37225317198556" lon="11.741552485474516"><ele>14.0</ele><time>2026-04-03T17:32:10Z</time></trkpt><trkpt lat="45.37224836397746" lon="11.741330745534603"><ele>14.0</ele><time>2026-04-03T17:32:11Z</time></trkpt><trkpt lat="45.372210231774794" lon="11.741159292382067"><ele>14.0</ele><time>2026-04-03T17:32:12Z</time></trkpt><trkpt lat="45.37219193046906" lon="11.741036526565365"><ele>14.0</ele><time>2026-04-03T17:32:13Z</time></trkpt><trkpt lat="45.37218205481586" lon="11.740861644653581"><ele>13.75</ele><time>2026-04-03T17:32:14Z</time></trkpt><trkpt lat="45.372178109728274" lon="11.740698449013305"><ele>13.5</ele><time>2026-04-03T17:32:15Z</time></trkpt><trkpt lat="45.3721729707563" lon="11.740531769092666"><ele>13.25</ele><time>2026-04-03T17:32:16Z</time></trkpt><trkpt lat="45.372173464098125" lon="11.74036180351662"><ele>13.0</ele><time>2026-04-03T17:32:17Z</time></trkpt><trkpt lat="45.37216595856935" lon="11.740197018972461"><ele>13.0</ele><time>2026-04-03T17:32:18Z</time></trkpt><trkpt lat="45.37215576166625" lon="11.740036501671856"><ele>13.0</ele><time>2026-04-03T17:32:19Z</time></trkpt><trkpt lat="45.37215254732765" lon="11.73986427082168"><ele>13.0</ele><time>2026-04-03T17:32:20Z</time></trkpt><trkpt lat="45.37215323894255" lon="11.739697936592979"><ele>13.0</ele><time>2026-04-03T17:32:21Z</time></trkpt><trkpt lat="45.37214606097397" lon="11.739517901509949"><ele>13.25</ele><time>2026-04-03T17:32:22Z</time></trkpt><trkpt lat="45.37213801354507" lon="11.739349731878134"><ele>13.5</ele><time>2026-04-03T17:32:23Z</time></trkpt><trkpt lat="45.372131013027705" lon="11.739182111643023"><ele>13.75</ele><time>2026-04-03T17:32:24Z</time></trkpt><trkpt lat="45.372116394392386" lon="11.739005309784963"><ele>14.0</ele><time>2026-04-03T17:32:25Z</time></trkpt><trkpt lat="45.37211897318241" lon="11.738827338833051"><ele>14.0</ele><time>2026-04-03T17:32:26Z</time></trkpt><trkpt lat="45.372098294514174" lon="11.738661800970554"><ele>14.0</ele><time>2026-04-03T17:32:27Z</time></trkpt><trkpt lat="45.37208840619018" lon="11.738483923582972"><ele>14.0</ele><time>2026-04-03T17:32:28Z</time></trkpt><trkpt lat="45.37207930577999" lon="11.738317933285098"><ele>14.0</ele><time>2026-04-03T17:32:29Z</time></trkpt><trkpt lat="45.372069148222494" lon="11.738163048425166"><ele>14.0</ele><time>2026-04-03T17:32:30Z</time></trkpt><trkpt lat="45.37205637335064" lon="11.73799837984102"><ele>14.0</ele><time>2026-04-03T17:32:31Z</time></trkpt><trkpt lat="45.372041200008795" lon="11.737821293132187"><ele>14.0</ele><time>2026-04-03T17:32:32Z</time></trkpt><trkpt lat="45.37202768758127" lon="11.737632314241024"><ele>14.0</ele><time>2026-04-03T17:32:33Z</time></trkpt><trkpt lat="45.37201586698175" lon="11.737447221131887"><ele>14.0</ele><time>2026-04-03T17:32:34Z</time></trkpt><trkpt lat="45.372008562942625" lon="11.737252235094957"><ele>14.0</ele><time>2026-04-03T17:32:35Z</time></trkpt><trkpt lat="45.37199892836261" lon="11.737064583089065"><ele>14.0</ele><time>2026-04-03T17:32:36Z</time></trkpt><trkpt lat="45.371989680032584" lon="11.73687646313919"><ele>14.0</ele><time>2026-04-03T17:32:37Z</time></trkpt><trkpt lat="45.37198099841867" lon="11.736678587218812"><ele>14.0</ele><time>2026-04-03T17:32:38Z</time></trkpt><trkpt lat="45.371970777377896" lon="11.736476150758497"><ele>14.0</ele><time>2026-04-03T17:32:39Z</time></trkpt><trkpt lat="45.37196014652941" lon="11.73627215267776"><ele>14.0</ele><time>2026-04-03T17:32:40Z</time></trkpt><trkpt lat="45.371963974340765" lon="11.736056762700263"><ele>14.0</ele><time>2026-04-03T17:32:41Z</time></trkpt><trkpt lat="45.37195272993933" lon="11.735844847687028"><ele>13.75</ele><time>2026-04-03T17:32:42Z</time></trkpt><trkpt lat="45.371946367707935" lon="11.73563623695258"><ele>13.5</ele><time>2026-04-03T17:32:43Z</time></trkpt><trkpt lat="45.37194082047897" lon="11.735422125079213"><ele>13.25</ele><time>2026-04-03T17:32:44Z</time></trkpt><trkpt lat="45.3719320536322" lon="11.735222102697646"><ele>13.0</ele><time>2026-04-03T17:32:45Z</time></trkpt><trkpt lat="45.37191977958554" lon="11.735021070812559"><ele>13.0</ele><time>2026-04-03T17:32:46Z</time></trkpt><trkpt lat="45.37191233169579" lon="11.734826970691147"><ele>13.0</ele><time>2026-04-03T17:32:47Z</time></trkpt><trkpt lat="45.37190286209389" lon="11.734634813763606"><ele>13.0</ele><time>2026-04-03T17:32:48Z</time></trkpt><trkpt lat="45.37188942488545" lon="11.734439260972591"><ele>13.0</ele><time>2026-04-03T17:32:49Z</time></trkpt><trkpt lat="45.37188417710912" lon="11.734237996389705"><ele>13.0</ele><time>2026-04-03T17:32:50Z</time></trkpt><trkpt lat="45.371873769153304" lon="11.734045348883685"><ele>13.0</ele><time>2026-04-03T17:32:51Z</time></trkpt><trkpt lat="45.371863790646586" lon="11.73385940923332"><ele>13.0</ele><time>2026-04-03T17:32:52Z</time></trkpt><trkpt lat="45.371854517493915" lon="11.733677440619195"><ele>13.0</ele><time>2026-04-03T17:32:53Z</time></trkpt><trkpt lat="45.3718422895495" lon="11.733495734215198"><ele>13.5</ele><time>2026-04-03T17:32:54Z</time></trkpt><trkpt lat="45.37183703149376" lon="11.73331301906405"><ele>14.0</ele><time>2026-04-03T17:32:55Z</time></trkpt><trkpt lat="45.371828053859005" lon="11.733140752989808"><ele>14.5</ele><time>2026-04-03T17:32:56Z</time></trkpt><trkpt lat="45.37182446814854" lon="11.7329725568393"><ele>15.0</ele><time>2026-04-03T17:32:57Z</time></trkpt><trkpt lat="45.37182046903059" lon="11.732820622098368"><ele>14.8</ele><time>2026-04-03T17:32:58Z</time></trkpt><trkpt lat="45.37182738406957" lon="11.732695645087256"><ele>14.6</ele><time>2026-04-03T17:32:59Z</time></trkpt><trkpt lat="45.371843826322156" lon="11.73259942916731"><ele>14.399999999999999</ele><time>2026-04-03T17:33:00Z</time></trkpt><trkpt lat="45.37188562954473" lon="11.732525861755205"><ele>14.2</ele><time>2026-04-03T17:33:01Z</time></trkpt><trkpt lat="45.37199145884902" lon="11.732434472824558"><ele>14.0</ele><time>2026-04-03T17:33:03Z</time></trkpt><trkpt lat="45.37207936510397" lon="11.732352119539856"><ele>14.000000000000002</ele><time>2026-04-03T17:33:05Z</time></trkpt><trkpt lat="45.37210871894525" lon="11.732182927900812"><ele>14.0</ele><time>2026-04-03T17:33:07Z</time></trkpt><trkpt lat="45.37210175276716" lon="11.732093050101177"><ele>14.0</ele><time>2026-04-03T17:33:08Z</time></trkpt><trkpt lat="45.37205088127167" lon="11.732014402696278"><ele>14.0</ele><time>2026-04-03T17:33:09Z</time></trkpt><trkpt lat="45.37198046669431" lon="11.731982177107714"><ele>14.000000000000002</ele><time>2026-04-03T17:33:10Z</time></trkpt><trkpt lat="45.3719187051036" lon="11.731944537565418"><ele>14.0</ele><time>2026-04-03T17:33:11Z</time></trkpt><trkpt lat="45.371860365133756" lon="11.731894212269397"><ele>14.0</ele><time>2026-04-03T17:33:12Z</time></trkpt><trkpt lat="45.37181700380677" lon="11.731815821932042"><ele>13.999999999999998</ele><time>2026-04-03T17:33:13Z</time></trkpt><trkpt lat="45.37177077604399" lon="11.731737832371007"><ele>13.999999999999998</ele><time>2026-04-03T17:33:14Z</time></trkpt><trkpt lat="45.37177990750622" lon="11.731584207308385"><ele>14.0</ele><time>2026-04-03T17:33:15Z</time></trkpt><trkpt lat="45.37177210418887" lon="11.731451023223592"><ele>14.0</ele><time>2026-04-03T17:33:16Z</time></trkpt><trkpt lat="45.37174858697162" lon="11.73130147236357"><ele>14.0</ele><time>2026-04-03T17:33:17Z</time></trkpt><trkpt lat="45.37172840196674" lon="11.731144182091137"><ele>14.0</ele><time>2026-04-03T17:33:18Z</time></trkpt><trkpt lat="45.37171177231086" lon="11.730963928782053"><ele>14.0</ele><time>2026-04-03T17:33:19Z</time></trkpt><trkpt lat="45.371690438438854" lon="11.730778032827795"><ele>14.0</ele><time>2026-04-03T17:33:20Z</time></trkpt><trkpt lat="45.37167685795331" lon="11.730578759023228"><ele>14.0</ele><time>2026-04-03T17:33:21Z</time></trkpt><trkpt lat="45.371648731357666" lon="11.730388019657052"><ele>14.0</ele><time>2026-04-03T17:33:22Z</time></trkpt><trkpt lat="45.371621940715634" lon="11.73017383248016"><ele>14.0</ele><time>2026-04-03T17:33:23Z</time></trkpt><trkpt lat="45.37160300154024" lon="11.729976148611634"><ele>14.0</ele><time>2026-04-03T17:33:24Z</time></trkpt><trkpt lat="45.37157517365042" lon="11.729762247034087"><ele>13.666666666666668</ele><time>2026-04-03T17:33:25Z</time></trkpt><trkpt lat="45.37154715670249" lon="11.729546051262796"><ele>13.333333333333332</ele><time>2026-04-03T17:33:26Z</time></trkpt><trkpt lat="45.37153026510578" lon="11.729342036354307"><ele>13.0</ele><time>2026-04-03T17:33:27Z</time></trkpt><trkpt lat="45.37152153744635" lon="11.729124259653688"><ele>13.0</ele><time>2026-04-03T17:33:28Z</time></trkpt><trkpt lat="45.371507396086464" lon="11.728899953479354"><ele>13.0</ele><time>2026-04-03T17:33:29Z</time></trkpt><trkpt lat="45.371509758173225" lon="11.728701265665487"><ele>13.0</ele><time>2026-04-03T17:33:30Z</time></trkpt><trkpt lat="45.37150291489661" lon="11.728506294585666"><ele>13.0</ele><time>2026-04-03T17:33:31Z</time></trkpt><trkpt lat="45.37149605053607" lon="11.728310722599451"><ele>13.25</ele><time>2026-04-03T17:33:32Z</time></trkpt><trkpt lat="45.37148932331887" lon="11.728119058064209"><ele>13.5</ele><time>2026-04-03T17:33:33Z</time></trkpt><trkpt lat="45.371482673889446" lon="11.727929609826868"><ele>13.75</ele><time>2026-04-03T17:33:34Z</time></trkpt><trkpt lat="45.371475834127146" lon="11.727740808627708"><ele>14.0</ele><time>2026-04-03T17:33:35Z</time></trkpt><trkpt lat="45.371469905806535" lon="11.727556204344202"><ele>14.25</ele><time>2026-04-03T17:33:36Z</time></trkpt><trkpt lat="45.371463810816856" lon="11.727373256672168"><ele>14.5</ele><time>2026-04-03T17:33:37Z</time></trkpt><trkpt lat="45.3714578775625" lon="11.727195163606263"><ele>14.75</ele><time>2026-04-03T17:33:38Z</time></trkpt><trkpt lat="45.37145175185157" lon="11.72701129383357"><ele>15.0</ele><time>2026-04-03T17:33:39Z</time></trkpt><trkpt lat="45.37144575170339" lon="11.726831190834778"><ele>15.0</ele><time>2026-04-03T17:33:40Z</time></trkpt><trkpt lat="45.37143967583491" lon="11.72665402146685"><ele>15.0</ele><time>2026-04-03T17:33:41Z</time></trkpt><trkpt lat="45.371433532425925" lon="11.726473743762785"><ele>15.0</ele><time>2026-04-03T17:33:42Z</time></trkpt><trkpt lat="45.371410936466425" lon="11.72628516233264"><ele>15.0</ele><time>2026-04-03T17:33:43Z</time></trkpt><trkpt lat="45.3714128874038" lon="11.726090347794706"><ele>15.25</ele><time>2026-04-03T17:33:44Z</time></trkpt><trkpt lat="45.371404798466806" lon="11.725901134214821"><ele>15.5</ele><time>2026-04-03T17:33:45Z</time></trkpt><trkpt lat="45.371401897015375" lon="11.725713655267066"><ele>15.75</ele><time>2026-04-03T17:33:46Z</time></trkpt><trkpt lat="45.37140213482711" lon="11.725525132482039"><ele>16.0</ele><time>2026-04-03T17:33:47Z</time></trkpt><trkpt lat="45.371412978083484" lon="11.725349689018385"><ele>15.25</ele><time>2026-04-03T17:33:48Z</time></trkpt><trkpt lat="45.37140987546273" lon="11.725168300299831"><ele>14.5</ele><time>2026-04-03T17:33:49Z</time></trkpt><trkpt lat="45.37140529029174" lon="11.724975639945878"><ele>13.75</ele><time>2026-04-03T17:33:50Z</time></trkpt><trkpt lat="45.371393430426544" lon="11.72479785209463"><ele>13.0</ele><time>2026-04-03T17:33:51Z</time></trkpt><trkpt lat="45.37138528183118" lon="11.724623753473477"><ele>13.0</ele><time>2026-04-03T17:33:52Z</time></trkpt><trkpt lat="45.371376504608136" lon="11.724440041783495"><ele>13.0</ele><time>2026-04-03T17:33:53Z</time></trkpt><trkpt lat="45.37137046677245" lon="11.724252540515339"><ele>13.0</ele><time>2026-04-03T17:33:54Z</time></trkpt><trkpt lat="45.37135494125042" lon="11.724068474214864"><ele>13.0</ele><time>2026-04-03T17:33:55Z</time></trkpt><trkpt lat="45.37135172119146" lon="11.723888128987378"><ele>12.75</ele><time>2026-04-03T17:33:56Z</time></trkpt><trkpt lat="45.371351659464466" lon="11.72371602678536"><ele>12.5</ele><time>2026-04-03T17:33:57Z</time></trkpt><trkpt lat="45.37134899260128" lon="11.723543791619104"><ele>12.25</ele><time>2026-04-03T17:33:58Z</time></trkpt><trkpt lat="45.37133449265876" lon="11.723389495129691"><ele>12.0</ele><time>2026-04-03T17:33:59Z</time></trkpt><trkpt lat="45.37132650260255" lon="11.723231920497232"><ele>12.6</ele><time>2026-04-03T17:34:00Z</time></trkpt><trkpt lat="45.37133941329851" lon="11.72308439502153"><ele>13.2</ele><time>2026-04-03T17:34:01Z</time></trkpt><trkpt lat="45.37133593929078" lon="11.722934354972315"><ele>13.8</ele><time>2026-04-03T17:34:02Z</time></trkpt><trkpt lat="45.371332473399455" lon="11.722784665225499"><ele>14.4</ele><time>2026-04-03T17:34:03Z</time></trkpt><trkpt lat="45.37132914902705" lon="11.722641085178937"><ele>15.0</ele><time>2026-04-03T17:34:04Z</time></trkpt><trkpt lat="45.3713258637915" lon="11.722495907769451"><ele>15.0</ele><time>2026-04-03T17:34:05Z</time></trkpt><trkpt lat="45.371322630709756" lon="11.722353498072696"><ele>15.0</ele><time>2026-04-03T17:34:06Z</time></trkpt><trkpt lat="45.37131966064897" lon="11.722222000588179"><ele>15.0</ele><time>2026-04-03T17:34:07Z</time></trkpt><trkpt lat="45.37131713584926" lon="11.722110216735642"><ele>15.0</ele><time>2026-04-03T17:34:08Z</time></trkpt><trkpt lat="45.37131492573449" lon="11.722012365663604"><ele>15.0</ele><time>2026-04-03T17:34:09Z</time></trkpt><trkpt lat="45.37131279304145" lon="11.721917941880964"><ele>15.0</ele><time>2026-04-03T17:34:10Z</time></trkpt><trkpt lat="45.37131058887554" lon="11.721824207181184"><ele>15.333333333333334</ele><time>2026-04-03T17:34:11Z</time></trkpt><trkpt lat="45.37130840659413" lon="11.721731694175121"><ele>15.666666666666668</ele><time>2026-04-03T17:34:12Z</time></trkpt><trkpt lat="45.371306091520246" lon="11.721633549366869"><ele>16.0</ele><time>2026-04-03T17:34:13Z</time></trkpt><trkpt lat="45.371304043339904" lon="11.7215322069396"><ele>16.333333333333336</ele><time>2026-04-03T17:34:14Z</time></trkpt><trkpt lat="45.37130160214619" lon="11.721420097042204"><ele>16.666666666666668</ele><time>2026-04-03T17:34:15Z</time></trkpt><trkpt lat="45.371298874398576" lon="11.721294827259465"><ele>17.0</ele><time>2026-04-03T17:34:16Z</time></trkpt><trkpt lat="45.371295890906424" lon="11.721157812511262"><ele>16.6</ele><time>2026-04-03T17:34:17Z</time></trkpt><trkpt lat="45.37129277402166" lon="11.721014672045799"><ele>16.2</ele><time>2026-04-03T17:34:18Z</time></trkpt><trkpt lat="45.37128934993159" lon="11.720857418614568"><ele>15.8</ele><time>2026-04-03T17:34:19Z</time></trkpt><trkpt lat="45.37128626815528" lon="11.72069887087724"><ele>15.4</ele><time>2026-04-03T17:34:20Z</time></trkpt><trkpt lat="45.37128274333804" lon="11.720529953290464"><ele>15.0</ele><time>2026-04-03T17:34:21Z</time></trkpt><trkpt lat="45.37127936170181" lon="11.72036789757723"><ele>15.0</ele><time>2026-04-03T17:34:22Z</time></trkpt><trkpt lat="45.371275828920986" lon="11.720198594666403"><ele>15.0</ele><time>2026-04-03T17:34:23Z</time></trkpt><trkpt lat="45.37127243336542" lon="11.720042450342973"><ele>15.0</ele><time>2026-04-03T17:34:24Z</time></trkpt><trkpt lat="45.37127046180299" lon="11.719950366971338"><ele>15.0</ele><time>2026-04-03T17:34:25Z</time></trkpt><trkpt lat="45.371268016369314" lon="11.719828835726641"><ele>15.0</ele><time>2026-04-03T17:34:26Z</time></trkpt><trkpt lat="45.37126550866751" lon="11.719697841001178"><ele>15.0</ele><time>2026-04-03T17:34:27Z</time></trkpt><trkpt lat="45.37125353812375" lon="11.71956339168983"><ele>15.0</ele><time>2026-04-03T17:34:28Z</time></trkpt><trkpt lat="45.37125011169281" lon="11.719416236299265"><ele>15.0</ele><time>2026-04-03T17:34:29Z</time></trkpt><trkpt lat="45.37126212921221" lon="11.719257555121782"><ele>15.0</ele><time>2026-04-03T17:34:30Z</time></trkpt><trkpt lat="45.37126654424144" lon="11.719087446342519"><ele>15.0</ele><time>2026-04-03T17:34:31Z</time></trkpt><trkpt lat="45.371261074929066" lon="11.718904897196936"><ele>15.0</ele><time>2026-04-03T17:34:32Z</time></trkpt><trkpt lat="45.371245588201035" lon="11.718709006283914"><ele>15.0</ele><time>2026-04-03T17:34:33Z</time></trkpt><trkpt lat="45.37123338522723" lon="11.718511325991729"><ele>15.0</ele><time>2026-04-03T17:34:34Z</time></trkpt><trkpt lat="45.37122527282849" lon="11.718322356421607"><ele>15.0</ele><time>2026-04-03T17:34:35Z</time></trkpt><trkpt lat="45.371213505439655" lon="11.71813565869784"><ele>15.0</ele><time>2026-04-03T17:34:36Z</time></trkpt><trkpt lat="45.37119172148333" lon="11.717954457614825"><ele>15.0</ele><time>2026-04-03T17:34:37Z</time></trkpt><trkpt lat="45.37116043192146" lon="11.717778271678096"><ele>15.0</ele><time>2026-04-03T17:34:38Z</time></trkpt><trkpt lat="45.37110995005179" lon="11.717612175982381"><ele>15.0</ele><time>2026-04-03T17:34:39Z</time></trkpt><trkpt lat="45.371045019413415" lon="11.71745405985035"><ele>15.0</ele><time>2026-04-03T17:34:40Z</time></trkpt><trkpt lat="45.37096449941848" lon="11.717297977395713"><ele>15.0</ele><time>2026-04-03T17:34:41Z</time></trkpt><trkpt lat="45.370891090128104" lon="11.717173065014387"><ele>15.0</ele><time>2026-04-03T17:34:42Z</time></trkpt><trkpt lat="45.370809470011615" lon="11.717027218007726"><ele>15.0</ele><time>2026-04-03T17:34:43Z</time></trkpt><trkpt lat="45.37072502500827" lon="11.716882438715182"><ele>15.0</ele><time>2026-04-03T17:34:44Z</time></trkpt><trkpt lat="45.37064501287813" lon="11.716758668006097"><ele>15.0</ele><time>2026-04-03T17:34:45Z</time></trkpt><trkpt lat="45.37057943156026" lon="11.716626862650612"><ele>15.0</ele><time>2026-04-03T17:34:46Z</time></trkpt><trkpt lat="45.37048020081759" lon="11.716481162070677"><ele>15.0</ele><time>2026-04-03T17:34:47Z</time></trkpt><trkpt lat="45.37040882875472" lon="11.716347787076959"><ele>15.0</ele><time>2026-04-03T17:34:48Z</time></trkpt><trkpt lat="45.370329230397445" lon="11.716185050047075"><ele>15.0</ele><time>2026-04-03T17:34:49Z</time></trkpt><trkpt lat="45.370241744679866" lon="11.71602890890709"><ele>15.0</ele><time>2026-04-03T17:34:50Z</time></trkpt><trkpt lat="45.37015860227282" lon="11.715876179965408"><ele>15.0</ele><time>2026-04-03T17:34:51Z</time></trkpt><trkpt lat="45.37007745338649" lon="11.715719256955412"><ele>15.0</ele><time>2026-04-03T17:34:52Z</time></trkpt><trkpt lat="45.36998885235747" lon="11.715563598762708"><ele>15.0</ele><time>2026-04-03T17:34:53Z</time></trkpt><trkpt lat="45.369891721834826" lon="11.715401976856878"><ele>15.0</ele><time>2026-04-03T17:34:54Z</time></trkpt><trkpt lat="45.36980813012627" lon="11.715253953024508"><ele>15.0</ele><time>2026-04-03T17:34:55Z</time></trkpt><trkpt lat="45.369718091131396" lon="11.715096183482363"><ele>15.0</ele><time>2026-04-03T17:34:56Z</time></trkpt><trkpt lat="45.36962846353007" lon="11.714947202034255"><ele>15.0</ele><time>2026-04-03T17:34:57Z</time></trkpt><trkpt lat="45.36954179621319" lon="11.714796518208466"><ele>15.0</ele><time>2026-04-03T17:34:58Z</time></trkpt><trkpt lat="45.36945142361489" lon="11.714651388984736"><ele>15.0</ele><time>2026-04-03T17:34:59Z</time></trkpt><trkpt lat="45.36936893911172" lon="11.714510601017063"><ele>14.75</ele><time>2026-04-03T17:35:00Z</time></trkpt><trkpt lat="45.369285576376924" lon="11.714364563505983"><ele>14.5</ele><time>2026-04-03T17:35:01Z</time></trkpt><trkpt lat="45.36920610268561" lon="11.714216963108125"><ele>14.25</ele><time>2026-04-03T17:35:02Z</time></trkpt><trkpt lat="45.369128753814906" lon="11.71406536512632"><ele>14.0</ele><time>2026-04-03T17:35:03Z</time></trkpt><trkpt lat="45.36905969696771" lon="11.713917589334073"><ele>14.0</ele><time>2026-04-03T17:35:04Z</time></trkpt><trkpt lat="45.36897853716806" lon="11.713759308564907"><ele>14.0</ele><time>2026-04-03T17:35:05Z</time></trkpt><trkpt lat="45.36891184874542" lon="11.713610910477593"><ele>14.0</ele><time>2026-04-03T17:35:06Z</time></trkpt><trkpt lat="45.36883654488904" lon="11.713452791281027"><ele>14.0</ele><time>2026-04-03T17:35:07Z</time></trkpt><trkpt lat="45.36876518828297" lon="11.713293293043456"><ele>14.5</ele><time>2026-04-03T17:35:08Z</time></trkpt><trkpt lat="45.36868830679819" lon="11.713129577692415"><ele>15.0</ele><time>2026-04-03T17:35:09Z</time></trkpt><trkpt lat="45.36861146887576" lon="11.712972783282053"><ele>15.5</ele><time>2026-04-03T17:35:10Z</time></trkpt><trkpt lat="45.36853737189554" lon="11.712817346044497"><ele>16.0</ele><time>2026-04-03T17:35:11Z</time></trkpt><trkpt lat="45.368465412344875" lon="11.71265944036819"><ele>16.0</ele><time>2026-04-03T17:35:12Z</time></trkpt><trkpt lat="45.36839212851316" lon="11.71250905080672"><ele>16.0</ele><time>2026-04-03T17:35:13Z</time></trkpt><trkpt lat="45.368323825461204" lon="11.712354070758549"><ele>16.0</ele><time>2026-04-03T17:35:14Z</time></trkpt><trkpt lat="45.36825555160899" lon="11.712205842136783"><ele>16.0</ele><time>2026-04-03T17:35:15Z</time></trkpt><trkpt lat="45.36818987904778" lon="11.712058811679565"><ele>16.0</ele><time>2026-04-03T17:35:16Z</time></trkpt><trkpt lat="45.36811720360716" lon="11.711908811934624"><ele>16.0</ele><time>2026-04-03T17:35:17Z</time></trkpt><trkpt lat="45.368045825693656" lon="11.711769935928848"><ele>16.0</ele><time>2026-04-03T17:35:18Z</time></trkpt><trkpt lat="45.367978083893895" lon="11.711635028726283"><ele>16.0</ele><time>2026-04-03T17:35:19Z</time></trkpt><trkpt lat="45.367918503153994" lon="11.711517443042405"><ele>14.0</ele><time>2026-04-03T17:35:20Z</time></trkpt><trkpt lat="45.367867785501424" lon="11.711404140265747"><ele>14.0</ele><time>2026-04-03T17:35:21Z</time></trkpt><trkpt lat="45.36782261007462" lon="11.711305099756974"><ele>14.0</ele><time>2026-04-03T17:35:22Z</time></trkpt><trkpt lat="45.367794010431204" lon="11.711222247693417"><ele>14.0</ele><time>2026-04-03T17:35:23Z</time></trkpt><trkpt lat="45.36775675204876" lon="11.71108330077281"><ele>14.0</ele><time>2026-04-03T17:35:25Z</time></trkpt><trkpt lat="45.36774184623383" lon="11.710986755026338"><ele>16.0</ele><time>2026-04-03T17:35:27Z</time></trkpt></trkseg></trk></gpx>